<?xml version="1.0" encoding="UTF-8" standalone="no" ?>
<gpx xmlns="http://www.topografix.com/GPX/1/1" xmlns:xsi="http://www.w3.org/2001/XMLSchema-instance" xsi:schemaLocation="http://www.topografix.com/GPX/1/1 http://www.topografix.com/GPX/1/1/gpx.xsd" version="1.1" creator="VisuGPX - https://www.visugpx.com">
  <metadata>
    <name>7 - &amp;quot;Via Garona&amp;quot;  Saint-Martory à Boussens</name>
    <desc><![CDATA[Parcours réalisé

]]></desc>
  </metadata>
  <trk>
    <name><![CDATA[1 août 2022 à 07:23:01]]></name>
    <cmt><![CDATA[1 août 2022 à 07:23:01]]></cmt>
    <trkseg>
      <trkpt lat="43.1385" lon="0.93353">
        <ele>290</ele>
        <time>2022-08-01T05:23:01Z</time>
      </trkpt>
      <trkpt lat="43.13851" lon="0.93359">
        <ele>290</ele>
        <time>2022-08-01T05:24:27Z</time>
      </trkpt>
      <trkpt lat="43.13853" lon="0.9336">
        <ele>291</ele>
        <time>2022-08-01T05:26:27Z</time>
      </trkpt>
      <trkpt lat="43.1386" lon="0.93355">
        <ele>291</ele>
        <time>2022-08-01T05:26:41Z</time>
      </trkpt>
      <trkpt lat="43.13866" lon="0.93344">
        <ele>291</ele>
        <time>2022-08-01T05:26:51Z</time>
      </trkpt>
      <trkpt lat="43.1387" lon="0.93331">
        <ele>291</ele>
        <time>2022-08-01T05:26:59Z</time>
      </trkpt>
      <trkpt lat="43.13864" lon="0.93292">
        <ele>291</ele>
        <time>2022-08-01T05:27:23Z</time>
      </trkpt>
      <trkpt lat="43.13851" lon="0.93246">
        <ele>292</ele>
        <time>2022-08-01T05:27:52Z</time>
      </trkpt>
      <trkpt lat="43.1385" lon="0.93231">
        <ele>292</ele>
        <time>2022-08-01T05:28:01Z</time>
      </trkpt>
      <trkpt lat="43.13837" lon="0.93181">
        <ele>291</ele>
        <time>2022-08-01T05:28:34Z</time>
      </trkpt>
      <trkpt lat="43.13836" lon="0.93174">
        <ele>291</ele>
        <time>2022-08-01T05:28:39Z</time>
      </trkpt>
      <trkpt lat="43.13834" lon="0.93169">
        <ele>291</ele>
        <time>2022-08-01T05:28:43Z</time>
      </trkpt>
      <trkpt lat="43.13829" lon="0.93147">
        <ele>291</ele>
        <time>2022-08-01T05:28:54Z</time>
      </trkpt>
      <trkpt lat="43.13832" lon="0.93138">
        <ele>291</ele>
        <time>2022-08-01T05:28:57Z</time>
      </trkpt>
      <trkpt lat="43.13844" lon="0.93124">
        <ele>291</ele>
        <time>2022-08-01T05:29:12Z</time>
      </trkpt>
      <trkpt lat="43.13853" lon="0.9312">
        <ele>291</ele>
        <time>2022-08-01T05:29:19Z</time>
      </trkpt>
      <trkpt lat="43.1387" lon="0.93118">
        <ele>291</ele>
        <time>2022-08-01T05:29:31Z</time>
      </trkpt>
      <trkpt lat="43.13874" lon="0.93121">
        <ele>291</ele>
        <time>2022-08-01T05:29:34Z</time>
      </trkpt>
      <trkpt lat="43.1389" lon="0.93122">
        <ele>291</ele>
        <time>2022-08-01T05:29:47Z</time>
      </trkpt>
      <trkpt lat="43.13917" lon="0.93115">
        <ele>291</ele>
        <time>2022-08-01T05:30:11Z</time>
      </trkpt>
      <trkpt lat="43.13928" lon="0.93115">
        <ele>291</ele>
        <time>2022-08-01T05:30:29Z</time>
      </trkpt>
      <trkpt lat="43.13951" lon="0.93116">
        <ele>291</ele>
        <time>2022-08-01T05:30:49Z</time>
      </trkpt>
      <trkpt lat="43.1397" lon="0.93109">
        <ele>291</ele>
        <time>2022-08-01T05:31:06Z</time>
      </trkpt>
      <trkpt lat="43.13974" lon="0.93103">
        <ele>291</ele>
        <time>2022-08-01T05:31:10Z</time>
      </trkpt>
      <trkpt lat="43.1398" lon="0.93103">
        <ele>291</ele>
        <time>2022-08-01T05:31:15Z</time>
      </trkpt>
      <trkpt lat="43.13988" lon="0.93105">
        <ele>291</ele>
        <time>2022-08-01T05:31:23Z</time>
      </trkpt>
      <trkpt lat="43.14027" lon="0.93092">
        <ele>290</ele>
        <time>2022-08-01T05:31:57Z</time>
      </trkpt>
      <trkpt lat="43.14042" lon="0.93089">
        <ele>289</ele>
        <time>2022-08-01T05:32:09Z</time>
      </trkpt>
      <trkpt lat="43.14056" lon="0.93094">
        <ele>289</ele>
        <time>2022-08-01T05:32:22Z</time>
      </trkpt>
      <trkpt lat="43.1409" lon="0.93062">
        <ele>288</ele>
        <time>2022-08-01T05:32:56Z</time>
      </trkpt>
      <trkpt lat="43.14095" lon="0.93056">
        <ele>288</ele>
        <time>2022-08-01T05:33:01Z</time>
      </trkpt>
      <trkpt lat="43.14101" lon="0.93056">
        <ele>288</ele>
        <time>2022-08-01T05:33:05Z</time>
      </trkpt>
      <trkpt lat="43.14112" lon="0.93049">
        <ele>288</ele>
        <time>2022-08-01T05:33:14Z</time>
      </trkpt>
      <trkpt lat="43.14118" lon="0.93044">
        <ele>288</ele>
        <time>2022-08-01T05:33:18Z</time>
      </trkpt>
      <trkpt lat="43.14126" lon="0.93042">
        <ele>288</ele>
        <time>2022-08-01T05:33:26Z</time>
      </trkpt>
      <trkpt lat="43.14131" lon="0.9303">
        <ele>287</ele>
        <time>2022-08-01T05:33:36Z</time>
      </trkpt>
      <trkpt lat="43.14137" lon="0.93023">
        <ele>287</ele>
        <time>2022-08-01T05:33:45Z</time>
      </trkpt>
      <trkpt lat="43.14142" lon="0.93024">
        <ele>286</ele>
        <time>2022-08-01T05:34:07Z</time>
      </trkpt>
      <trkpt lat="43.14153" lon="0.93037">
        <ele>287</ele>
        <time>2022-08-01T05:34:19Z</time>
      </trkpt>
      <trkpt lat="43.14175" lon="0.9303">
        <ele>287</ele>
        <time>2022-08-01T05:34:48Z</time>
      </trkpt>
      <trkpt lat="43.14179" lon="0.9303">
        <ele>287</ele>
        <time>2022-08-01T05:34:53Z</time>
      </trkpt>
      <trkpt lat="43.14208" lon="0.93013">
        <ele>286</ele>
        <time>2022-08-01T05:35:20Z</time>
      </trkpt>
      <trkpt lat="43.14213" lon="0.93014">
        <ele>286</ele>
        <time>2022-08-01T05:35:28Z</time>
      </trkpt>
      <trkpt lat="43.14217" lon="0.9302">
        <ele>287</ele>
        <time>2022-08-01T05:35:52Z</time>
      </trkpt>
      <trkpt lat="43.14221" lon="0.93024">
        <ele>285</ele>
        <time>2022-08-01T05:36:10Z</time>
      </trkpt>
      <trkpt lat="43.14224" lon="0.93032">
        <ele>285</ele>
        <time>2022-08-01T05:36:17Z</time>
      </trkpt>
      <trkpt lat="43.14224" lon="0.93043">
        <ele>284</ele>
        <time>2022-08-01T05:36:26Z</time>
      </trkpt>
      <trkpt lat="43.14232" lon="0.93059">
        <ele>283</ele>
        <time>2022-08-01T05:36:52Z</time>
      </trkpt>
      <trkpt lat="43.14236" lon="0.93077">
        <ele>282</ele>
        <time>2022-08-01T05:37:06Z</time>
      </trkpt>
      <trkpt lat="43.14239" lon="0.93083">
        <ele>282</ele>
        <time>2022-08-01T05:37:10Z</time>
      </trkpt>
      <trkpt lat="43.14246" lon="0.93117">
        <ele>281</ele>
        <time>2022-08-01T05:37:32Z</time>
      </trkpt>
      <trkpt lat="43.14249" lon="0.93122">
        <ele>281</ele>
        <time>2022-08-01T05:37:37Z</time>
      </trkpt>
      <trkpt lat="43.1425" lon="0.93128">
        <ele>281</ele>
        <time>2022-08-01T05:37:42Z</time>
      </trkpt>
      <trkpt lat="43.14269" lon="0.93171">
        <ele>281</ele>
        <time>2022-08-01T05:38:12Z</time>
      </trkpt>
      <trkpt lat="43.14272" lon="0.93182">
        <ele>281</ele>
        <time>2022-08-01T05:38:20Z</time>
      </trkpt>
      <trkpt lat="43.14275" lon="0.93186">
        <ele>281</ele>
        <time>2022-08-01T05:38:24Z</time>
      </trkpt>
      <trkpt lat="43.14285" lon="0.93212">
        <ele>283</ele>
        <time>2022-08-01T05:38:47Z</time>
      </trkpt>
      <trkpt lat="43.14293" lon="0.93215">
        <ele>284</ele>
        <time>2022-08-01T05:38:59Z</time>
      </trkpt>
      <trkpt lat="43.14301" lon="0.93213">
        <ele>284</ele>
        <time>2022-08-01T05:39:11Z</time>
      </trkpt>
      <trkpt lat="43.14301" lon="0.93224">
        <ele>285</ele>
        <time>2022-08-01T05:39:18Z</time>
      </trkpt>
      <trkpt lat="43.14301" lon="0.93232">
        <ele>285</ele>
        <time>2022-08-01T05:39:21Z</time>
      </trkpt>
      <trkpt lat="43.14302" lon="0.93239">
        <ele>285</ele>
        <time>2022-08-01T05:39:24Z</time>
      </trkpt>
      <trkpt lat="43.14302" lon="0.93245">
        <ele>285</ele>
        <time>2022-08-01T05:39:29Z</time>
      </trkpt>
      <trkpt lat="43.14308" lon="0.93271">
        <ele>285</ele>
        <time>2022-08-01T05:39:48Z</time>
      </trkpt>
      <trkpt lat="43.14313" lon="0.93276">
        <ele>285</ele>
        <time>2022-08-01T05:39:56Z</time>
      </trkpt>
      <trkpt lat="43.14321" lon="0.93271">
        <ele>285</ele>
        <time>2022-08-01T05:40:11Z</time>
      </trkpt>
      <trkpt lat="43.14326" lon="0.93264">
        <ele>285</ele>
        <time>2022-08-01T05:40:18Z</time>
      </trkpt>
      <trkpt lat="43.14327" lon="0.93255">
        <ele>285</ele>
        <time>2022-08-01T05:40:29Z</time>
      </trkpt>
      <trkpt lat="43.14318" lon="0.93233">
        <ele>285</ele>
        <time>2022-08-01T05:41:44Z</time>
      </trkpt>
      <trkpt lat="43.14311" lon="0.9323">
        <ele>285</ele>
        <time>2022-08-01T05:42:08Z</time>
      </trkpt>
      <trkpt lat="43.14305" lon="0.93228">
        <ele>285</ele>
        <time>2022-08-01T05:42:13Z</time>
      </trkpt>
      <trkpt lat="43.14309" lon="0.93221">
        <ele>285</ele>
        <time>2022-08-01T05:42:51Z</time>
      </trkpt>
      <trkpt lat="43.14307" lon="0.93214">
        <ele>285</ele>
        <time>2022-08-01T05:43:27Z</time>
      </trkpt>
      <trkpt lat="43.14314" lon="0.93212">
        <ele>286</ele>
        <time>2022-08-01T05:43:56Z</time>
      </trkpt>
      <trkpt lat="43.14319" lon="0.93213">
        <ele>286</ele>
        <time>2022-08-01T05:44:00Z</time>
      </trkpt>
      <trkpt lat="43.14332" lon="0.93235">
        <ele>287</ele>
        <time>2022-08-01T05:44:11Z</time>
      </trkpt>
      <trkpt lat="43.14338" lon="0.93253">
        <ele>287</ele>
        <time>2022-08-01T05:44:22Z</time>
      </trkpt>
      <trkpt lat="43.14339" lon="0.93268">
        <ele>287</ele>
        <time>2022-08-01T05:44:30Z</time>
      </trkpt>
      <trkpt lat="43.14347" lon="0.93291">
        <ele>287</ele>
        <time>2022-08-01T05:44:47Z</time>
      </trkpt>
      <trkpt lat="43.14348" lon="0.93297">
        <ele>286</ele>
        <time>2022-08-01T05:44:52Z</time>
      </trkpt>
      <trkpt lat="43.14355" lon="0.93308">
        <ele>286</ele>
        <time>2022-08-01T05:45:02Z</time>
      </trkpt>
      <trkpt lat="43.1436" lon="0.93316">
        <ele>286</ele>
        <time>2022-08-01T05:45:24Z</time>
      </trkpt>
      <trkpt lat="43.14361" lon="0.93347">
        <ele>286</ele>
        <time>2022-08-01T05:45:43Z</time>
      </trkpt>
      <trkpt lat="43.14364" lon="0.93364">
        <ele>286</ele>
        <time>2022-08-01T05:45:52Z</time>
      </trkpt>
      <trkpt lat="43.14365" lon="0.93371">
        <ele>286</ele>
        <time>2022-08-01T05:45:55Z</time>
      </trkpt>
      <trkpt lat="43.14367" lon="0.93377">
        <ele>286</ele>
        <time>2022-08-01T05:45:58Z</time>
      </trkpt>
      <trkpt lat="43.14378" lon="0.93423">
        <ele>286</ele>
        <time>2022-08-01T05:46:26Z</time>
      </trkpt>
      <trkpt lat="43.14381" lon="0.93456">
        <ele>285</ele>
        <time>2022-08-01T05:46:46Z</time>
      </trkpt>
      <trkpt lat="43.14384" lon="0.9347">
        <ele>285</ele>
        <time>2022-08-01T05:46:54Z</time>
      </trkpt>
      <trkpt lat="43.14385" lon="0.93487">
        <ele>285</ele>
        <time>2022-08-01T05:47:04Z</time>
      </trkpt>
      <trkpt lat="43.14388" lon="0.93495">
        <ele>285</ele>
        <time>2022-08-01T05:47:08Z</time>
      </trkpt>
      <trkpt lat="43.14393" lon="0.93535">
        <ele>285</ele>
        <time>2022-08-01T05:47:36Z</time>
      </trkpt>
      <trkpt lat="43.14402" lon="0.9357">
        <ele>285</ele>
        <time>2022-08-01T05:47:56Z</time>
      </trkpt>
      <trkpt lat="43.14409" lon="0.93604">
        <ele>285</ele>
        <time>2022-08-01T05:48:19Z</time>
      </trkpt>
      <trkpt lat="43.14411" lon="0.93609">
        <ele>285</ele>
        <time>2022-08-01T05:48:25Z</time>
      </trkpt>
      <trkpt lat="43.14414" lon="0.93614">
        <ele>285</ele>
        <time>2022-08-01T05:48:37Z</time>
      </trkpt>
      <trkpt lat="43.14408" lon="0.93615">
        <ele>286</ele>
        <time>2022-08-01T05:48:55Z</time>
      </trkpt>
      <trkpt lat="43.14411" lon="0.93622">
        <ele>286</ele>
        <time>2022-08-01T05:49:07Z</time>
      </trkpt>
      <trkpt lat="43.14419" lon="0.93645">
        <ele>285</ele>
        <time>2022-08-01T05:49:29Z</time>
      </trkpt>
      <trkpt lat="43.14421" lon="0.93669">
        <ele>285</ele>
        <time>2022-08-01T05:49:42Z</time>
      </trkpt>
      <trkpt lat="43.14426" lon="0.93689">
        <ele>285</ele>
        <time>2022-08-01T05:49:54Z</time>
      </trkpt>
      <trkpt lat="43.14426" lon="0.93697">
        <ele>285</ele>
        <time>2022-08-01T05:49:59Z</time>
      </trkpt>
      <trkpt lat="43.1443" lon="0.9371">
        <ele>285</ele>
        <time>2022-08-01T05:50:07Z</time>
      </trkpt>
      <trkpt lat="43.14431" lon="0.93715">
        <ele>285</ele>
        <time>2022-08-01T05:50:11Z</time>
      </trkpt>
      <trkpt lat="43.14434" lon="0.9372">
        <ele>285</ele>
        <time>2022-08-01T05:50:15Z</time>
      </trkpt>
      <trkpt lat="43.14433" lon="0.93721">
        <ele>286</ele>
        <time>2022-08-01T05:50:49Z</time>
      </trkpt>
      <trkpt lat="43.14438" lon="0.93735">
        <ele>286</ele>
        <time>2022-08-01T05:50:58Z</time>
      </trkpt>
      <trkpt lat="43.14444" lon="0.93737">
        <ele>287</ele>
        <time>2022-08-01T05:51:17Z</time>
      </trkpt>
      <trkpt lat="43.14448" lon="0.93743">
        <ele>287</ele>
        <time>2022-08-01T05:51:22Z</time>
      </trkpt>
      <trkpt lat="43.14452" lon="0.9375">
        <ele>287</ele>
        <time>2022-08-01T05:51:29Z</time>
      </trkpt>
      <trkpt lat="43.14462" lon="0.93759">
        <ele>288</ele>
        <time>2022-08-01T05:51:43Z</time>
      </trkpt>
      <trkpt lat="43.14466" lon="0.93765">
        <ele>289</ele>
        <time>2022-08-01T05:51:48Z</time>
      </trkpt>
      <trkpt lat="43.14475" lon="0.9377">
        <ele>290</ele>
        <time>2022-08-01T05:51:59Z</time>
      </trkpt>
      <trkpt lat="43.14502" lon="0.93771">
        <ele>293</ele>
        <time>2022-08-01T05:52:31Z</time>
      </trkpt>
      <trkpt lat="43.14508" lon="0.93769">
        <ele>293</ele>
        <time>2022-08-01T05:52:37Z</time>
      </trkpt>
      <trkpt lat="43.14516" lon="0.93771">
        <ele>294</ele>
        <time>2022-08-01T05:52:46Z</time>
      </trkpt>
      <trkpt lat="43.1452" lon="0.93771">
        <ele>294</ele>
        <time>2022-08-01T05:52:50Z</time>
      </trkpt>
      <trkpt lat="43.14528" lon="0.93777">
        <ele>295</ele>
        <time>2022-08-01T05:53:02Z</time>
      </trkpt>
      <trkpt lat="43.14534" lon="0.93768">
        <ele>296</ele>
        <time>2022-08-01T05:53:58Z</time>
      </trkpt>
      <trkpt lat="43.14544" lon="0.93772">
        <ele>297</ele>
        <time>2022-08-01T05:54:11Z</time>
      </trkpt>
      <trkpt lat="43.14548" lon="0.93777">
        <ele>298</ele>
        <time>2022-08-01T05:54:17Z</time>
      </trkpt>
      <trkpt lat="43.14557" lon="0.93779">
        <ele>298</ele>
        <time>2022-08-01T05:54:54Z</time>
      </trkpt>
      <trkpt lat="43.14563" lon="0.93779">
        <ele>298</ele>
        <time>2022-08-01T05:55:00Z</time>
      </trkpt>
      <trkpt lat="43.14567" lon="0.93783">
        <ele>299</ele>
        <time>2022-08-01T05:55:08Z</time>
      </trkpt>
      <trkpt lat="43.14585" lon="0.93785">
        <ele>301</ele>
        <time>2022-08-01T05:55:28Z</time>
      </trkpt>
      <trkpt lat="43.14599" lon="0.93779">
        <ele>304</ele>
        <time>2022-08-01T05:55:59Z</time>
      </trkpt>
      <trkpt lat="43.14606" lon="0.93777">
        <ele>305</ele>
        <time>2022-08-01T05:56:07Z</time>
      </trkpt>
      <trkpt lat="43.14613" lon="0.93778">
        <ele>306</ele>
        <time>2022-08-01T05:56:15Z</time>
      </trkpt>
      <trkpt lat="43.14639" lon="0.93774">
        <ele>309</ele>
        <time>2022-08-01T05:56:45Z</time>
      </trkpt>
      <trkpt lat="43.14648" lon="0.93781">
        <ele>310</ele>
        <time>2022-08-01T05:56:59Z</time>
      </trkpt>
      <trkpt lat="43.14662" lon="0.93781">
        <ele>312</ele>
        <time>2022-08-01T05:57:27Z</time>
      </trkpt>
      <trkpt lat="43.14668" lon="0.93779">
        <ele>313</ele>
        <time>2022-08-01T05:57:34Z</time>
      </trkpt>
      <trkpt lat="43.14697" lon="0.93784">
        <ele>316</ele>
        <time>2022-08-01T05:58:07Z</time>
      </trkpt>
      <trkpt lat="43.14704" lon="0.93784">
        <ele>317</ele>
        <time>2022-08-01T05:58:13Z</time>
      </trkpt>
      <trkpt lat="43.14711" lon="0.93785">
        <ele>318</ele>
        <time>2022-08-01T05:58:27Z</time>
      </trkpt>
      <trkpt lat="43.14729" lon="0.93786">
        <ele>321</ele>
        <time>2022-08-01T05:58:47Z</time>
      </trkpt>
      <trkpt lat="43.14736" lon="0.93792">
        <ele>322</ele>
        <time>2022-08-01T05:58:58Z</time>
      </trkpt>
      <trkpt lat="43.14756" lon="0.93813">
        <ele>325</ele>
        <time>2022-08-01T05:59:30Z</time>
      </trkpt>
      <trkpt lat="43.14768" lon="0.93828">
        <ele>326</ele>
        <time>2022-08-01T05:59:49Z</time>
      </trkpt>
      <trkpt lat="43.14773" lon="0.93829">
        <ele>327</ele>
        <time>2022-08-01T05:59:55Z</time>
      </trkpt>
      <trkpt lat="43.14778" lon="0.9384">
        <ele>328</ele>
        <time>2022-08-01T06:00:08Z</time>
      </trkpt>
      <trkpt lat="43.14794" lon="0.93853">
        <ele>330</ele>
        <time>2022-08-01T06:00:44Z</time>
      </trkpt>
      <trkpt lat="43.14808" lon="0.93868">
        <ele>332</ele>
        <time>2022-08-01T06:01:06Z</time>
      </trkpt>
      <trkpt lat="43.14814" lon="0.93873">
        <ele>334</ele>
        <time>2022-08-01T06:01:19Z</time>
      </trkpt>
      <trkpt lat="43.14821" lon="0.93872">
        <ele>336</ele>
        <time>2022-08-01T06:01:43Z</time>
      </trkpt>
      <trkpt lat="43.14829" lon="0.93877">
        <ele>338</ele>
        <time>2022-08-01T06:01:56Z</time>
      </trkpt>
      <trkpt lat="43.14837" lon="0.9389">
        <ele>339</ele>
        <time>2022-08-01T06:02:10Z</time>
      </trkpt>
      <trkpt lat="43.14848" lon="0.939">
        <ele>342</ele>
        <time>2022-08-01T06:02:36Z</time>
      </trkpt>
      <trkpt lat="43.14861" lon="0.9392">
        <ele>345</ele>
        <time>2022-08-01T06:03:08Z</time>
      </trkpt>
      <trkpt lat="43.14871" lon="0.93932">
        <ele>348</ele>
        <time>2022-08-01T06:03:38Z</time>
      </trkpt>
      <trkpt lat="43.14876" lon="0.93939">
        <ele>349</ele>
        <time>2022-08-01T06:03:50Z</time>
      </trkpt>
      <trkpt lat="43.14883" lon="0.93949">
        <ele>351</ele>
        <time>2022-08-01T06:04:09Z</time>
      </trkpt>
      <trkpt lat="43.14887" lon="0.93956">
        <ele>352</ele>
        <time>2022-08-01T06:04:21Z</time>
      </trkpt>
      <trkpt lat="43.14888" lon="0.93962">
        <ele>353</ele>
        <time>2022-08-01T06:05:09Z</time>
      </trkpt>
      <trkpt lat="43.14894" lon="0.93966">
        <ele>354</ele>
        <time>2022-08-01T06:05:57Z</time>
      </trkpt>
      <trkpt lat="43.14906" lon="0.93982">
        <ele>357</ele>
        <time>2022-08-01T06:06:21Z</time>
      </trkpt>
      <trkpt lat="43.14911" lon="0.9399">
        <ele>359</ele>
        <time>2022-08-01T06:06:45Z</time>
      </trkpt>
      <trkpt lat="43.14917" lon="0.94001">
        <ele>360</ele>
        <time>2022-08-01T06:07:27Z</time>
      </trkpt>
      <trkpt lat="43.14922" lon="0.94004">
        <ele>360</ele>
        <time>2022-08-01T06:07:33Z</time>
      </trkpt>
      <trkpt lat="43.1493" lon="0.94018">
        <ele>362</ele>
        <time>2022-08-01T06:07:51Z</time>
      </trkpt>
      <trkpt lat="43.14931" lon="0.94025">
        <ele>363</ele>
        <time>2022-08-01T06:07:57Z</time>
      </trkpt>
      <trkpt lat="43.14936" lon="0.94029">
        <ele>364</ele>
        <time>2022-08-01T06:08:03Z</time>
      </trkpt>
      <trkpt lat="43.14942" lon="0.94053">
        <ele>367</ele>
        <time>2022-08-01T06:08:35Z</time>
      </trkpt>
      <trkpt lat="43.14948" lon="0.94061">
        <ele>369</ele>
        <time>2022-08-01T06:08:48Z</time>
      </trkpt>
      <trkpt lat="43.14949" lon="0.94069">
        <ele>371</ele>
        <time>2022-08-01T06:09:00Z</time>
      </trkpt>
      <trkpt lat="43.14954" lon="0.94077">
        <ele>372</ele>
        <time>2022-08-01T06:09:13Z</time>
      </trkpt>
      <trkpt lat="43.14957" lon="0.94088">
        <ele>373</ele>
        <time>2022-08-01T06:09:26Z</time>
      </trkpt>
      <trkpt lat="43.14959" lon="0.94096">
        <ele>375</ele>
        <time>2022-08-01T06:09:50Z</time>
      </trkpt>
      <trkpt lat="43.14966" lon="0.94123">
        <ele>379</ele>
        <time>2022-08-01T06:10:32Z</time>
      </trkpt>
      <trkpt lat="43.14969" lon="0.9413">
        <ele>380</ele>
        <time>2022-08-01T06:10:45Z</time>
      </trkpt>
      <trkpt lat="43.14971" lon="0.94137">
        <ele>382</ele>
        <time>2022-08-01T06:10:57Z</time>
      </trkpt>
      <trkpt lat="43.14975" lon="0.94146">
        <ele>384</ele>
        <time>2022-08-01T06:11:15Z</time>
      </trkpt>
      <trkpt lat="43.1498" lon="0.94157">
        <ele>386</ele>
        <time>2022-08-01T06:11:34Z</time>
      </trkpt>
      <trkpt lat="43.14982" lon="0.94167">
        <ele>387</ele>
        <time>2022-08-01T06:11:46Z</time>
      </trkpt>
      <trkpt lat="43.14988" lon="0.94189">
        <ele>390</ele>
        <time>2022-08-01T06:12:17Z</time>
      </trkpt>
      <trkpt lat="43.14988" lon="0.94198">
        <ele>391</ele>
        <time>2022-08-01T06:12:29Z</time>
      </trkpt>
      <trkpt lat="43.1499" lon="0.94204">
        <ele>392</ele>
        <time>2022-08-01T06:12:35Z</time>
      </trkpt>
      <trkpt lat="43.14991" lon="0.94212">
        <ele>393</ele>
        <time>2022-08-01T06:12:46Z</time>
      </trkpt>
      <trkpt lat="43.14993" lon="0.94223">
        <ele>395</ele>
        <time>2022-08-01T06:13:00Z</time>
      </trkpt>
      <trkpt lat="43.14995" lon="0.94231">
        <ele>396</ele>
        <time>2022-08-01T06:13:11Z</time>
      </trkpt>
      <trkpt lat="43.14993" lon="0.94244">
        <ele>398</ele>
        <time>2022-08-01T06:13:24Z</time>
      </trkpt>
      <trkpt lat="43.14996" lon="0.94251">
        <ele>399</ele>
        <time>2022-08-01T06:13:36Z</time>
      </trkpt>
      <trkpt lat="43.15001" lon="0.94252">
        <ele>399</ele>
        <time>2022-08-01T06:13:48Z</time>
      </trkpt>
      <trkpt lat="43.15006" lon="0.94256">
        <ele>400</ele>
        <time>2022-08-01T06:14:00Z</time>
      </trkpt>
      <trkpt lat="43.1501" lon="0.94262">
        <ele>400</ele>
        <time>2022-08-01T06:14:18Z</time>
      </trkpt>
      <trkpt lat="43.15008" lon="0.94269">
        <ele>400</ele>
        <time>2022-08-01T06:14:24Z</time>
      </trkpt>
      <trkpt lat="43.15002" lon="0.94262">
        <ele>400</ele>
        <time>2022-08-01T06:14:42Z</time>
      </trkpt>
      <trkpt lat="43.14999" lon="0.94255">
        <ele>399</ele>
        <time>2022-08-01T06:14:54Z</time>
      </trkpt>
      <trkpt lat="43.15002" lon="0.94241">
        <ele>398</ele>
        <time>2022-08-01T06:15:02Z</time>
      </trkpt>
      <trkpt lat="43.15006" lon="0.94235">
        <ele>399</ele>
        <time>2022-08-01T06:15:12Z</time>
      </trkpt>
      <trkpt lat="43.15004" lon="0.94228">
        <ele>397</ele>
        <time>2022-08-01T06:15:49Z</time>
      </trkpt>
      <trkpt lat="43.15003" lon="0.94186">
        <ele>394</ele>
        <time>2022-08-01T06:16:25Z</time>
      </trkpt>
      <trkpt lat="43.15002" lon="0.94179">
        <ele>394</ele>
        <time>2022-08-01T06:16:49Z</time>
      </trkpt>
      <trkpt lat="43.15007" lon="0.9418">
        <ele>393</ele>
        <time>2022-08-01T06:17:31Z</time>
      </trkpt>
      <trkpt lat="43.15015" lon="0.94181">
        <ele>392</ele>
        <time>2022-08-01T06:17:43Z</time>
      </trkpt>
      <trkpt lat="43.15019" lon="0.9419">
        <ele>392</ele>
        <time>2022-08-01T06:17:49Z</time>
      </trkpt>
      <trkpt lat="43.15028" lon="0.94198">
        <ele>390</ele>
        <time>2022-08-01T06:18:02Z</time>
      </trkpt>
      <trkpt lat="43.15034" lon="0.94197">
        <ele>389</ele>
        <time>2022-08-01T06:18:10Z</time>
      </trkpt>
      <trkpt lat="43.15047" lon="0.9419">
        <ele>386</ele>
        <time>2022-08-01T06:18:34Z</time>
      </trkpt>
      <trkpt lat="43.15052" lon="0.94187">
        <ele>386</ele>
        <time>2022-08-01T06:18:39Z</time>
      </trkpt>
      <trkpt lat="43.15058" lon="0.94181">
        <ele>386</ele>
        <time>2022-08-01T06:18:47Z</time>
      </trkpt>
      <trkpt lat="43.15083" lon="0.9415">
        <ele>388</ele>
        <time>2022-08-01T06:19:16Z</time>
      </trkpt>
      <trkpt lat="43.15088" lon="0.9415">
        <ele>388</ele>
        <time>2022-08-01T06:19:25Z</time>
      </trkpt>
      <trkpt lat="43.15097" lon="0.94144">
        <ele>388</ele>
        <time>2022-08-01T06:19:35Z</time>
      </trkpt>
      <trkpt lat="43.15106" lon="0.94148">
        <ele>387</ele>
        <time>2022-08-01T06:19:48Z</time>
      </trkpt>
      <trkpt lat="43.15112" lon="0.94148">
        <ele>387</ele>
        <time>2022-08-01T06:19:53Z</time>
      </trkpt>
      <trkpt lat="43.15116" lon="0.94146">
        <ele>386</ele>
        <time>2022-08-01T06:19:58Z</time>
      </trkpt>
      <trkpt lat="43.15122" lon="0.94147">
        <ele>385</ele>
        <time>2022-08-01T06:20:04Z</time>
      </trkpt>
      <trkpt lat="43.15127" lon="0.94145">
        <ele>384</ele>
        <time>2022-08-01T06:20:11Z</time>
      </trkpt>
      <trkpt lat="43.1516" lon="0.94145">
        <ele>381</ele>
        <time>2022-08-01T06:20:44Z</time>
      </trkpt>
      <trkpt lat="43.15166" lon="0.94149">
        <ele>381</ele>
        <time>2022-08-01T06:20:49Z</time>
      </trkpt>
      <trkpt lat="43.15174" lon="0.94155">
        <ele>380</ele>
        <time>2022-08-01T06:20:57Z</time>
      </trkpt>
      <trkpt lat="43.15178" lon="0.9416">
        <ele>379</ele>
        <time>2022-08-01T06:21:02Z</time>
      </trkpt>
      <trkpt lat="43.1518" lon="0.94167">
        <ele>378</ele>
        <time>2022-08-01T06:21:07Z</time>
      </trkpt>
      <trkpt lat="43.15189" lon="0.94178">
        <ele>377</ele>
        <time>2022-08-01T06:21:18Z</time>
      </trkpt>
      <trkpt lat="43.15194" lon="0.94189">
        <ele>376</ele>
        <time>2022-08-01T06:21:28Z</time>
      </trkpt>
      <trkpt lat="43.15198" lon="0.94192">
        <ele>376</ele>
        <time>2022-08-01T06:21:33Z</time>
      </trkpt>
      <trkpt lat="43.15203" lon="0.94203">
        <ele>375</ele>
        <time>2022-08-01T06:21:46Z</time>
      </trkpt>
      <trkpt lat="43.15209" lon="0.94209">
        <ele>375</ele>
        <time>2022-08-01T06:22:03Z</time>
      </trkpt>
      <trkpt lat="43.15221" lon="0.94229">
        <ele>372</ele>
        <time>2022-08-01T06:22:26Z</time>
      </trkpt>
      <trkpt lat="43.15226" lon="0.94233">
        <ele>372</ele>
        <time>2022-08-01T06:22:35Z</time>
      </trkpt>
      <trkpt lat="43.15249" lon="0.94268">
        <ele>368</ele>
        <time>2022-08-01T06:23:09Z</time>
      </trkpt>
      <trkpt lat="43.15258" lon="0.94281">
        <ele>367</ele>
        <time>2022-08-01T06:23:21Z</time>
      </trkpt>
      <trkpt lat="43.15263" lon="0.94299">
        <ele>365</ele>
        <time>2022-08-01T06:23:40Z</time>
      </trkpt>
      <trkpt lat="43.15262" lon="0.94308">
        <ele>365</ele>
        <time>2022-08-01T06:23:55Z</time>
      </trkpt>
      <trkpt lat="43.15266" lon="0.94315">
        <ele>365</ele>
        <time>2022-08-01T06:24:08Z</time>
      </trkpt>
      <trkpt lat="43.15269" lon="0.9433">
        <ele>364</ele>
        <time>2022-08-01T06:24:19Z</time>
      </trkpt>
      <trkpt lat="43.15268" lon="0.94337">
        <ele>363</ele>
        <time>2022-08-01T06:24:24Z</time>
      </trkpt>
      <trkpt lat="43.15269" lon="0.94347">
        <ele>362</ele>
        <time>2022-08-01T06:24:31Z</time>
      </trkpt>
      <trkpt lat="43.15268" lon="0.94362">
        <ele>361</ele>
        <time>2022-08-01T06:24:40Z</time>
      </trkpt>
      <trkpt lat="43.15269" lon="0.94376">
        <ele>360</ele>
        <time>2022-08-01T06:24:50Z</time>
      </trkpt>
      <trkpt lat="43.15275" lon="0.94405">
        <ele>359</ele>
        <time>2022-08-01T06:25:09Z</time>
      </trkpt>
      <trkpt lat="43.15275" lon="0.94413">
        <ele>359</ele>
        <time>2022-08-01T06:25:16Z</time>
      </trkpt>
      <trkpt lat="43.15279" lon="0.94432">
        <ele>358</ele>
        <time>2022-08-01T06:25:28Z</time>
      </trkpt>
      <trkpt lat="43.15282" lon="0.94438">
        <ele>358</ele>
        <time>2022-08-01T06:25:32Z</time>
      </trkpt>
      <trkpt lat="43.15283" lon="0.94443">
        <ele>358</ele>
        <time>2022-08-01T06:25:36Z</time>
      </trkpt>
      <trkpt lat="43.15287" lon="0.94456">
        <ele>358</ele>
        <time>2022-08-01T06:25:45Z</time>
      </trkpt>
      <trkpt lat="43.15291" lon="0.9446">
        <ele>358</ele>
        <time>2022-08-01T06:25:54Z</time>
      </trkpt>
      <trkpt lat="43.15291" lon="0.94469">
        <ele>359</ele>
        <time>2022-08-01T06:26:12Z</time>
      </trkpt>
      <trkpt lat="43.15298" lon="0.94465">
        <ele>358</ele>
        <time>2022-08-01T06:26:36Z</time>
      </trkpt>
      <trkpt lat="43.15302" lon="0.94465">
        <ele>358</ele>
        <time>2022-08-01T06:26:42Z</time>
      </trkpt>
      <trkpt lat="43.15308" lon="0.94469">
        <ele>357</ele>
        <time>2022-08-01T06:26:47Z</time>
      </trkpt>
      <trkpt lat="43.15313" lon="0.94476">
        <ele>356</ele>
        <time>2022-08-01T06:26:58Z</time>
      </trkpt>
      <trkpt lat="43.15318" lon="0.94478">
        <ele>355</ele>
        <time>2022-08-01T06:27:04Z</time>
      </trkpt>
      <trkpt lat="43.15349" lon="0.94511">
        <ele>351</ele>
        <time>2022-08-01T06:27:34Z</time>
      </trkpt>
      <trkpt lat="43.15353" lon="0.94524">
        <ele>350</ele>
        <time>2022-08-01T06:27:43Z</time>
      </trkpt>
      <trkpt lat="43.15359" lon="0.94546">
        <ele>349</ele>
        <time>2022-08-01T06:27:58Z</time>
      </trkpt>
      <trkpt lat="43.15362" lon="0.94555">
        <ele>348</ele>
        <time>2022-08-01T06:28:05Z</time>
      </trkpt>
      <trkpt lat="43.15364" lon="0.94563">
        <ele>348</ele>
        <time>2022-08-01T06:28:10Z</time>
      </trkpt>
      <trkpt lat="43.1537" lon="0.94575">
        <ele>347</ele>
        <time>2022-08-01T06:28:19Z</time>
      </trkpt>
      <trkpt lat="43.15376" lon="0.94595">
        <ele>346</ele>
        <time>2022-08-01T06:28:34Z</time>
      </trkpt>
      <trkpt lat="43.15383" lon="0.94607">
        <ele>345</ele>
        <time>2022-08-01T06:28:44Z</time>
      </trkpt>
      <trkpt lat="43.15385" lon="0.94612">
        <ele>345</ele>
        <time>2022-08-01T06:28:48Z</time>
      </trkpt>
      <trkpt lat="43.15388" lon="0.94617">
        <ele>345</ele>
        <time>2022-08-01T06:28:52Z</time>
      </trkpt>
      <trkpt lat="43.15393" lon="0.94619">
        <ele>345</ele>
        <time>2022-08-01T06:29:00Z</time>
      </trkpt>
      <trkpt lat="43.15397" lon="0.94625">
        <ele>345</ele>
        <time>2022-08-01T06:29:17Z</time>
      </trkpt>
      <trkpt lat="43.15401" lon="0.94628">
        <ele>345</ele>
        <time>2022-08-01T06:29:22Z</time>
      </trkpt>
      <trkpt lat="43.15417" lon="0.94632">
        <ele>344</ele>
        <time>2022-08-01T06:29:37Z</time>
      </trkpt>
      <trkpt lat="43.15425" lon="0.94629">
        <ele>343</ele>
        <time>2022-08-01T06:29:45Z</time>
      </trkpt>
      <trkpt lat="43.15431" lon="0.94627">
        <ele>342</ele>
        <time>2022-08-01T06:29:54Z</time>
      </trkpt>
      <trkpt lat="43.15446" lon="0.94634">
        <ele>340</ele>
        <time>2022-08-01T06:30:08Z</time>
      </trkpt>
      <trkpt lat="43.15457" lon="0.94647">
        <ele>338</ele>
        <time>2022-08-01T06:30:22Z</time>
      </trkpt>
      <trkpt lat="43.15459" lon="0.94652">
        <ele>338</ele>
        <time>2022-08-01T06:30:25Z</time>
      </trkpt>
      <trkpt lat="43.15471" lon="0.94662">
        <ele>336</ele>
        <time>2022-08-01T06:30:38Z</time>
      </trkpt>
      <trkpt lat="43.15474" lon="0.94666">
        <ele>335</ele>
        <time>2022-08-01T06:30:42Z</time>
      </trkpt>
      <trkpt lat="43.1548" lon="0.94669">
        <ele>335</ele>
        <time>2022-08-01T06:30:48Z</time>
      </trkpt>
      <trkpt lat="43.15482" lon="0.94674">
        <ele>334</ele>
        <time>2022-08-01T06:30:57Z</time>
      </trkpt>
      <trkpt lat="43.15485" lon="0.94679">
        <ele>333</ele>
        <time>2022-08-01T06:31:03Z</time>
      </trkpt>
      <trkpt lat="43.15494" lon="0.94688">
        <ele>332</ele>
        <time>2022-08-01T06:31:13Z</time>
      </trkpt>
      <trkpt lat="43.15502" lon="0.947">
        <ele>331</ele>
        <time>2022-08-01T06:31:24Z</time>
      </trkpt>
      <trkpt lat="43.1552" lon="0.94741">
        <ele>329</ele>
        <time>2022-08-01T06:31:55Z</time>
      </trkpt>
      <trkpt lat="43.15525" lon="0.9476">
        <ele>327</ele>
        <time>2022-08-01T06:32:11Z</time>
      </trkpt>
      <trkpt lat="43.15531" lon="0.94769">
        <ele>325</ele>
        <time>2022-08-01T06:32:22Z</time>
      </trkpt>
      <trkpt lat="43.15544" lon="0.94779">
        <ele>322</ele>
        <time>2022-08-01T06:32:40Z</time>
      </trkpt>
      <trkpt lat="43.1555" lon="0.94782">
        <ele>321</ele>
        <time>2022-08-01T06:32:49Z</time>
      </trkpt>
      <trkpt lat="43.15565" lon="0.94792">
        <ele>320</ele>
        <time>2022-08-01T06:33:05Z</time>
      </trkpt>
      <trkpt lat="43.15565" lon="0.94801">
        <ele>321</ele>
        <time>2022-08-01T06:33:14Z</time>
      </trkpt>
      <trkpt lat="43.15572" lon="0.94801">
        <ele>319</ele>
        <time>2022-08-01T06:33:45Z</time>
      </trkpt>
      <trkpt lat="43.15578" lon="0.948">
        <ele>319</ele>
        <time>2022-08-01T06:33:51Z</time>
      </trkpt>
      <trkpt lat="43.15575" lon="0.94812">
        <ele>318</ele>
        <time>2022-08-01T06:34:06Z</time>
      </trkpt>
      <trkpt lat="43.15584" lon="0.94812">
        <ele>317</ele>
        <time>2022-08-01T06:35:23Z</time>
      </trkpt>
      <trkpt lat="43.15601" lon="0.94815">
        <ele>316</ele>
        <time>2022-08-01T06:35:38Z</time>
      </trkpt>
      <trkpt lat="43.15606" lon="0.94818">
        <ele>315</ele>
        <time>2022-08-01T06:35:44Z</time>
      </trkpt>
      <trkpt lat="43.15623" lon="0.94821">
        <ele>314</ele>
        <time>2022-08-01T06:36:15Z</time>
      </trkpt>
      <trkpt lat="43.15631" lon="0.94821">
        <ele>313</ele>
        <time>2022-08-01T06:36:24Z</time>
      </trkpt>
      <trkpt lat="43.15636" lon="0.94824">
        <ele>313</ele>
        <time>2022-08-01T06:36:29Z</time>
      </trkpt>
      <trkpt lat="43.15646" lon="0.94836">
        <ele>312</ele>
        <time>2022-08-01T06:36:39Z</time>
      </trkpt>
      <trkpt lat="43.15654" lon="0.94841">
        <ele>311</ele>
        <time>2022-08-01T06:36:50Z</time>
      </trkpt>
      <trkpt lat="43.15662" lon="0.94842">
        <ele>309</ele>
        <time>2022-08-01T06:36:58Z</time>
      </trkpt>
      <trkpt lat="43.15667" lon="0.94844">
        <ele>308</ele>
        <time>2022-08-01T06:37:02Z</time>
      </trkpt>
      <trkpt lat="43.1567" lon="0.9485">
        <ele>308</ele>
        <time>2022-08-01T06:37:04Z</time>
      </trkpt>
      <trkpt lat="43.15674" lon="0.94852">
        <ele>307</ele>
        <time>2022-08-01T06:37:09Z</time>
      </trkpt>
      <trkpt lat="43.15689" lon="0.94845">
        <ele>304</ele>
        <time>2022-08-01T06:37:29Z</time>
      </trkpt>
      <trkpt lat="43.15692" lon="0.9485">
        <ele>304</ele>
        <time>2022-08-01T06:37:34Z</time>
      </trkpt>
      <trkpt lat="43.15699" lon="0.94852">
        <ele>302</ele>
        <time>2022-08-01T06:37:42Z</time>
      </trkpt>
      <trkpt lat="43.15705" lon="0.9485">
        <ele>301</ele>
        <time>2022-08-01T06:37:50Z</time>
      </trkpt>
      <trkpt lat="43.15711" lon="0.94851">
        <ele>301</ele>
        <time>2022-08-01T06:37:56Z</time>
      </trkpt>
      <trkpt lat="43.15718" lon="0.94863">
        <ele>300</ele>
        <time>2022-08-01T06:38:08Z</time>
      </trkpt>
      <trkpt lat="43.15724" lon="0.94877">
        <ele>300</ele>
        <time>2022-08-01T06:38:17Z</time>
      </trkpt>
      <trkpt lat="43.15723" lon="0.94886">
        <ele>301</ele>
        <time>2022-08-01T06:38:24Z</time>
      </trkpt>
      <trkpt lat="43.15721" lon="0.94896">
        <ele>301</ele>
        <time>2022-08-01T06:38:33Z</time>
      </trkpt>
      <trkpt lat="43.1572" lon="0.9491">
        <ele>301</ele>
        <time>2022-08-01T06:38:40Z</time>
      </trkpt>
      <trkpt lat="43.15729" lon="0.94956">
        <ele>300</ele>
        <time>2022-08-01T06:39:13Z</time>
      </trkpt>
      <trkpt lat="43.15737" lon="0.95006">
        <ele>299</ele>
        <time>2022-08-01T06:39:46Z</time>
      </trkpt>
      <trkpt lat="43.15739" lon="0.95012">
        <ele>299</ele>
        <time>2022-08-01T06:39:50Z</time>
      </trkpt>
      <trkpt lat="43.15741" lon="0.95019">
        <ele>299</ele>
        <time>2022-08-01T06:39:54Z</time>
      </trkpt>
      <trkpt lat="43.15742" lon="0.9505">
        <ele>299</ele>
        <time>2022-08-01T06:40:16Z</time>
      </trkpt>
      <trkpt lat="43.15743" lon="0.95058">
        <ele>298</ele>
        <time>2022-08-01T06:40:24Z</time>
      </trkpt>
      <trkpt lat="43.15741" lon="0.95067">
        <ele>298</ele>
        <time>2022-08-01T06:40:32Z</time>
      </trkpt>
      <trkpt lat="43.15741" lon="0.95083">
        <ele>298</ele>
        <time>2022-08-01T06:40:40Z</time>
      </trkpt>
      <trkpt lat="43.15742" lon="0.9509">
        <ele>298</ele>
        <time>2022-08-01T06:40:44Z</time>
      </trkpt>
      <trkpt lat="43.15742" lon="0.95097">
        <ele>298</ele>
        <time>2022-08-01T06:40:53Z</time>
      </trkpt>
      <trkpt lat="43.15751" lon="0.95097">
        <ele>297</ele>
        <time>2022-08-01T06:41:33Z</time>
      </trkpt>
      <trkpt lat="43.15755" lon="0.95092">
        <ele>297</ele>
        <time>2022-08-01T06:41:41Z</time>
      </trkpt>
      <trkpt lat="43.15768" lon="0.95095">
        <ele>296</ele>
        <time>2022-08-01T06:42:05Z</time>
      </trkpt>
      <trkpt lat="43.15783" lon="0.95097">
        <ele>296</ele>
        <time>2022-08-01T06:42:21Z</time>
      </trkpt>
      <trkpt lat="43.15794" lon="0.95099">
        <ele>295</ele>
        <time>2022-08-01T06:42:31Z</time>
      </trkpt>
      <trkpt lat="43.15811" lon="0.95101">
        <ele>295</ele>
        <time>2022-08-01T06:42:50Z</time>
      </trkpt>
      <trkpt lat="43.15816" lon="0.95099">
        <ele>295</ele>
        <time>2022-08-01T06:42:53Z</time>
      </trkpt>
      <trkpt lat="43.15831" lon="0.95099">
        <ele>295</ele>
        <time>2022-08-01T06:43:06Z</time>
      </trkpt>
      <trkpt lat="43.15849" lon="0.95108">
        <ele>294</ele>
        <time>2022-08-01T06:43:22Z</time>
      </trkpt>
      <trkpt lat="43.15854" lon="0.95106">
        <ele>294</ele>
        <time>2022-08-01T06:43:26Z</time>
      </trkpt>
      <trkpt lat="43.15859" lon="0.95106">
        <ele>294</ele>
        <time>2022-08-01T06:43:33Z</time>
      </trkpt>
      <trkpt lat="43.15877" lon="0.95119">
        <ele>293</ele>
        <time>2022-08-01T06:43:48Z</time>
      </trkpt>
      <trkpt lat="43.15882" lon="0.95119">
        <ele>293</ele>
        <time>2022-08-01T06:43:53Z</time>
      </trkpt>
      <trkpt lat="43.15887" lon="0.95122">
        <ele>292</ele>
        <time>2022-08-01T06:43:58Z</time>
      </trkpt>
      <trkpt lat="43.1589" lon="0.95127">
        <ele>292</ele>
        <time>2022-08-01T06:44:01Z</time>
      </trkpt>
      <trkpt lat="43.15892" lon="0.95139">
        <ele>292</ele>
        <time>2022-08-01T06:45:16Z</time>
      </trkpt>
      <trkpt lat="43.15897" lon="0.95142">
        <ele>291</ele>
        <time>2022-08-01T06:45:26Z</time>
      </trkpt>
      <trkpt lat="43.15905" lon="0.95152">
        <ele>290</ele>
        <time>2022-08-01T06:45:37Z</time>
      </trkpt>
      <trkpt lat="43.1591" lon="0.95162">
        <ele>288</ele>
        <time>2022-08-01T06:45:45Z</time>
      </trkpt>
      <trkpt lat="43.15915" lon="0.95167">
        <ele>288</ele>
        <time>2022-08-01T06:45:51Z</time>
      </trkpt>
      <trkpt lat="43.15923" lon="0.95184">
        <ele>286</ele>
        <time>2022-08-01T06:46:05Z</time>
      </trkpt>
      <trkpt lat="43.15931" lon="0.95195">
        <ele>285</ele>
        <time>2022-08-01T06:46:15Z</time>
      </trkpt>
      <trkpt lat="43.15935" lon="0.95206">
        <ele>285</ele>
        <time>2022-08-01T06:46:23Z</time>
      </trkpt>
      <trkpt lat="43.15956" lon="0.95238">
        <ele>283</ele>
        <time>2022-08-01T06:46:54Z</time>
      </trkpt>
      <trkpt lat="43.15978" lon="0.95267">
        <ele>281</ele>
        <time>2022-08-01T06:47:23Z</time>
      </trkpt>
      <trkpt lat="43.15998" lon="0.95264">
        <ele>280</ele>
        <time>2022-08-01T06:47:51Z</time>
      </trkpt>
      <trkpt lat="43.16001" lon="0.9527">
        <ele>279</ele>
        <time>2022-08-01T06:50:55Z</time>
      </trkpt>
      <trkpt lat="43.16001" lon="0.95265">
        <ele>277</ele>
        <time>2022-08-01T06:58:49Z</time>
      </trkpt>
      <trkpt lat="43.16012" lon="0.95275">
        <ele>277</ele>
        <time>2022-08-01T06:59:06Z</time>
      </trkpt>
      <trkpt lat="43.16016" lon="0.95278">
        <ele>277</ele>
        <time>2022-08-01T06:59:11Z</time>
      </trkpt>
      <trkpt lat="43.16019" lon="0.95281">
        <ele>277</ele>
        <time>2022-08-01T06:59:16Z</time>
      </trkpt>
      <trkpt lat="43.16033" lon="0.95282">
        <ele>277</ele>
        <time>2022-08-01T06:59:38Z</time>
      </trkpt>
      <trkpt lat="43.16036" lon="0.95271">
        <ele>277</ele>
        <time>2022-08-01T07:00:14Z</time>
      </trkpt>
      <trkpt lat="43.16039" lon="0.95265">
        <ele>277</ele>
        <time>2022-08-01T07:00:20Z</time>
      </trkpt>
      <trkpt lat="43.16053" lon="0.95253">
        <ele>280</ele>
        <time>2022-08-01T07:00:42Z</time>
      </trkpt>
      <trkpt lat="43.16056" lon="0.95248">
        <ele>280</ele>
        <time>2022-08-01T07:00:48Z</time>
      </trkpt>
      <trkpt lat="43.16063" lon="0.95241">
        <ele>282</ele>
        <time>2022-08-01T07:01:00Z</time>
      </trkpt>
      <trkpt lat="43.16067" lon="0.9524">
        <ele>283</ele>
        <time>2022-08-01T07:01:06Z</time>
      </trkpt>
      <trkpt lat="43.16071" lon="0.95233">
        <ele>283</ele>
        <time>2022-08-01T07:01:15Z</time>
      </trkpt>
      <trkpt lat="43.16076" lon="0.95227">
        <ele>285</ele>
        <time>2022-08-01T07:02:03Z</time>
      </trkpt>
      <trkpt lat="43.16081" lon="0.95225">
        <ele>287</ele>
        <time>2022-08-01T07:02:14Z</time>
      </trkpt>
      <trkpt lat="43.16086" lon="0.95221">
        <ele>288</ele>
        <time>2022-08-01T07:02:26Z</time>
      </trkpt>
      <trkpt lat="43.16091" lon="0.95214">
        <ele>289</ele>
        <time>2022-08-01T07:02:38Z</time>
      </trkpt>
      <trkpt lat="43.16098" lon="0.95194">
        <ele>293</ele>
        <time>2022-08-01T07:03:13Z</time>
      </trkpt>
      <trkpt lat="43.161" lon="0.95186">
        <ele>294</ele>
        <time>2022-08-01T07:03:25Z</time>
      </trkpt>
      <trkpt lat="43.16101" lon="0.9517">
        <ele>297</ele>
        <time>2022-08-01T07:03:49Z</time>
      </trkpt>
      <trkpt lat="43.16104" lon="0.95161">
        <ele>298</ele>
        <time>2022-08-01T07:04:01Z</time>
      </trkpt>
      <trkpt lat="43.16118" lon="0.95154">
        <ele>300</ele>
        <time>2022-08-01T07:04:25Z</time>
      </trkpt>
      <trkpt lat="43.16125" lon="0.95157">
        <ele>301</ele>
        <time>2022-08-01T07:04:37Z</time>
      </trkpt>
      <trkpt lat="43.16134" lon="0.95164">
        <ele>302</ele>
        <time>2022-08-01T07:04:49Z</time>
      </trkpt>
      <trkpt lat="43.16142" lon="0.95167">
        <ele>303</ele>
        <time>2022-08-01T07:05:07Z</time>
      </trkpt>
      <trkpt lat="43.16151" lon="0.95177">
        <ele>304</ele>
        <time>2022-08-01T07:05:17Z</time>
      </trkpt>
      <trkpt lat="43.16155" lon="0.95181">
        <ele>304</ele>
        <time>2022-08-01T07:05:22Z</time>
      </trkpt>
      <trkpt lat="43.16162" lon="0.95192">
        <ele>304</ele>
        <time>2022-08-01T07:05:31Z</time>
      </trkpt>
      <trkpt lat="43.16165" lon="0.95198">
        <ele>305</ele>
        <time>2022-08-01T07:05:36Z</time>
      </trkpt>
      <trkpt lat="43.1617" lon="0.95203">
        <ele>305</ele>
        <time>2022-08-01T07:05:43Z</time>
      </trkpt>
      <trkpt lat="43.16177" lon="0.95204">
        <ele>305</ele>
        <time>2022-08-01T07:05:54Z</time>
      </trkpt>
      <trkpt lat="43.16188" lon="0.95208">
        <ele>305</ele>
        <time>2022-08-01T07:06:09Z</time>
      </trkpt>
      <trkpt lat="43.16199" lon="0.95207">
        <ele>305</ele>
        <time>2022-08-01T07:06:19Z</time>
      </trkpt>
      <trkpt lat="43.1621" lon="0.95219">
        <ele>305</ele>
        <time>2022-08-01T07:06:30Z</time>
      </trkpt>
      <trkpt lat="43.16216" lon="0.9522">
        <ele>305</ele>
        <time>2022-08-01T07:06:38Z</time>
      </trkpt>
      <trkpt lat="43.16235" lon="0.95228">
        <ele>306</ele>
        <time>2022-08-01T07:06:59Z</time>
      </trkpt>
      <trkpt lat="43.1624" lon="0.95226">
        <ele>306</ele>
        <time>2022-08-01T07:07:06Z</time>
      </trkpt>
      <trkpt lat="43.16249" lon="0.95225">
        <ele>307</ele>
        <time>2022-08-01T07:07:18Z</time>
      </trkpt>
      <trkpt lat="43.16253" lon="0.95216">
        <ele>307</ele>
        <time>2022-08-01T07:07:52Z</time>
      </trkpt>
      <trkpt lat="43.16256" lon="0.95211">
        <ele>307</ele>
        <time>2022-08-01T07:07:59Z</time>
      </trkpt>
      <trkpt lat="43.16262" lon="0.95202">
        <ele>307</ele>
        <time>2022-08-01T07:08:08Z</time>
      </trkpt>
      <trkpt lat="43.16276" lon="0.95191">
        <ele>307</ele>
        <time>2022-08-01T07:08:21Z</time>
      </trkpt>
      <trkpt lat="43.16284" lon="0.95191">
        <ele>307</ele>
        <time>2022-08-01T07:08:31Z</time>
      </trkpt>
      <trkpt lat="43.16289" lon="0.95188">
        <ele>307</ele>
        <time>2022-08-01T07:08:35Z</time>
      </trkpt>
      <trkpt lat="43.16293" lon="0.95185">
        <ele>307</ele>
        <time>2022-08-01T07:08:40Z</time>
      </trkpt>
      <trkpt lat="43.16299" lon="0.95184">
        <ele>307</ele>
        <time>2022-08-01T07:08:45Z</time>
      </trkpt>
      <trkpt lat="43.16308" lon="0.95176">
        <ele>307</ele>
        <time>2022-08-01T07:08:55Z</time>
      </trkpt>
      <trkpt lat="43.16317" lon="0.95172">
        <ele>308</ele>
        <time>2022-08-01T07:09:04Z</time>
      </trkpt>
      <trkpt lat="43.16321" lon="0.95168">
        <ele>308</ele>
        <time>2022-08-01T07:09:08Z</time>
      </trkpt>
      <trkpt lat="43.16334" lon="0.95162">
        <ele>309</ele>
        <time>2022-08-01T07:09:22Z</time>
      </trkpt>
      <trkpt lat="43.16357" lon="0.95136">
        <ele>310</ele>
        <time>2022-08-01T07:09:53Z</time>
      </trkpt>
      <trkpt lat="43.16386" lon="0.95096">
        <ele>312</ele>
        <time>2022-08-01T07:10:32Z</time>
      </trkpt>
      <trkpt lat="43.16394" lon="0.95084">
        <ele>313</ele>
        <time>2022-08-01T07:10:45Z</time>
      </trkpt>
      <trkpt lat="43.1641" lon="0.95069">
        <ele>315</ele>
        <time>2022-08-01T07:11:06Z</time>
      </trkpt>
      <trkpt lat="43.16422" lon="0.95068">
        <ele>316</ele>
        <time>2022-08-01T07:11:39Z</time>
      </trkpt>
      <trkpt lat="43.1643" lon="0.95066">
        <ele>317</ele>
        <time>2022-08-01T07:12:03Z</time>
      </trkpt>
      <trkpt lat="43.16437" lon="0.95067">
        <ele>317</ele>
        <time>2022-08-01T07:12:15Z</time>
      </trkpt>
      <trkpt lat="43.16439" lon="0.95055">
        <ele>318</ele>
        <time>2022-08-01T07:12:52Z</time>
      </trkpt>
      <trkpt lat="43.1644" lon="0.95045">
        <ele>319</ele>
        <time>2022-08-01T07:13:04Z</time>
      </trkpt>
      <trkpt lat="43.16445" lon="0.95034">
        <ele>320</ele>
        <time>2022-08-01T07:13:17Z</time>
      </trkpt>
      <trkpt lat="43.16451" lon="0.95015">
        <ele>321</ele>
        <time>2022-08-01T07:13:48Z</time>
      </trkpt>
      <trkpt lat="43.16454" lon="0.95009">
        <ele>321</ele>
        <time>2022-08-01T07:13:53Z</time>
      </trkpt>
      <trkpt lat="43.16459" lon="0.95001">
        <ele>322</ele>
        <time>2022-08-01T07:14:02Z</time>
      </trkpt>
      <trkpt lat="43.16469" lon="0.94989">
        <ele>323</ele>
        <time>2022-08-01T07:14:17Z</time>
      </trkpt>
      <trkpt lat="43.16477" lon="0.94975">
        <ele>325</ele>
        <time>2022-08-01T07:14:33Z</time>
      </trkpt>
      <trkpt lat="43.16478" lon="0.94969">
        <ele>326</ele>
        <time>2022-08-01T07:14:39Z</time>
      </trkpt>
      <trkpt lat="43.16481" lon="0.94964">
        <ele>326</ele>
        <time>2022-08-01T07:14:45Z</time>
      </trkpt>
      <trkpt lat="43.1649" lon="0.94958">
        <ele>327</ele>
        <time>2022-08-01T07:14:55Z</time>
      </trkpt>
      <trkpt lat="43.16493" lon="0.94952">
        <ele>328</ele>
        <time>2022-08-01T07:15:03Z</time>
      </trkpt>
      <trkpt lat="43.165" lon="0.94941">
        <ele>328</ele>
        <time>2022-08-01T07:15:15Z</time>
      </trkpt>
      <trkpt lat="43.16515" lon="0.94919">
        <ele>329</ele>
        <time>2022-08-01T07:15:38Z</time>
      </trkpt>
      <trkpt lat="43.16519" lon="0.94914">
        <ele>330</ele>
        <time>2022-08-01T07:16:10Z</time>
      </trkpt>
      <trkpt lat="43.1652" lon="0.94908">
        <ele>330</ele>
        <time>2022-08-01T07:16:15Z</time>
      </trkpt>
      <trkpt lat="43.16524" lon="0.94901">
        <ele>330</ele>
        <time>2022-08-01T07:16:26Z</time>
      </trkpt>
      <trkpt lat="43.16533" lon="0.94887">
        <ele>331</ele>
        <time>2022-08-01T07:16:43Z</time>
      </trkpt>
      <trkpt lat="43.16546" lon="0.94856">
        <ele>333</ele>
        <time>2022-08-01T07:17:10Z</time>
      </trkpt>
      <trkpt lat="43.16548" lon="0.94848">
        <ele>333</ele>
        <time>2022-08-01T07:17:17Z</time>
      </trkpt>
      <trkpt lat="43.16564" lon="0.94825">
        <ele>336</ele>
        <time>2022-08-01T07:17:45Z</time>
      </trkpt>
      <trkpt lat="43.1657" lon="0.94821">
        <ele>337</ele>
        <time>2022-08-01T07:17:53Z</time>
      </trkpt>
      <trkpt lat="43.16574" lon="0.94823">
        <ele>337</ele>
        <time>2022-08-01T07:17:57Z</time>
      </trkpt>
      <trkpt lat="43.16586" lon="0.94833">
        <ele>339</ele>
        <time>2022-08-01T07:18:15Z</time>
      </trkpt>
      <trkpt lat="43.16594" lon="0.94836">
        <ele>340</ele>
        <time>2022-08-01T07:18:24Z</time>
      </trkpt>
      <trkpt lat="43.16598" lon="0.9484">
        <ele>340</ele>
        <time>2022-08-01T07:18:29Z</time>
      </trkpt>
      <trkpt lat="43.16603" lon="0.94849">
        <ele>341</ele>
        <time>2022-08-01T07:18:41Z</time>
      </trkpt>
      <trkpt lat="43.16608" lon="0.94853">
        <ele>341</ele>
        <time>2022-08-01T07:18:46Z</time>
      </trkpt>
      <trkpt lat="43.16614" lon="0.94855">
        <ele>342</ele>
        <time>2022-08-01T07:18:52Z</time>
      </trkpt>
      <trkpt lat="43.16627" lon="0.94867">
        <ele>343</ele>
        <time>2022-08-01T07:19:12Z</time>
      </trkpt>
      <trkpt lat="43.16633" lon="0.94863">
        <ele>343</ele>
        <time>2022-08-01T07:19:24Z</time>
      </trkpt>
      <trkpt lat="43.16639" lon="0.94855">
        <ele>344</ele>
        <time>2022-08-01T07:19:36Z</time>
      </trkpt>
      <trkpt lat="43.16641" lon="0.9485">
        <ele>345</ele>
        <time>2022-08-01T07:19:40Z</time>
      </trkpt>
      <trkpt lat="43.16644" lon="0.94846">
        <ele>346</ele>
        <time>2022-08-01T07:19:48Z</time>
      </trkpt>
      <trkpt lat="43.16652" lon="0.9483">
        <ele>348</ele>
        <time>2022-08-01T07:20:08Z</time>
      </trkpt>
      <trkpt lat="43.16658" lon="0.94821">
        <ele>349</ele>
        <time>2022-08-01T07:20:20Z</time>
      </trkpt>
      <trkpt lat="43.16659" lon="0.94816">
        <ele>349</ele>
        <time>2022-08-01T07:20:24Z</time>
      </trkpt>
      <trkpt lat="43.16665" lon="0.94813">
        <ele>350</ele>
        <time>2022-08-01T07:20:31Z</time>
      </trkpt>
      <trkpt lat="43.16668" lon="0.94807">
        <ele>351</ele>
        <time>2022-08-01T07:20:39Z</time>
      </trkpt>
      <trkpt lat="43.16677" lon="0.94796">
        <ele>352</ele>
        <time>2022-08-01T07:20:56Z</time>
      </trkpt>
      <trkpt lat="43.1668" lon="0.94791">
        <ele>353</ele>
        <time>2022-08-01T07:21:02Z</time>
      </trkpt>
      <trkpt lat="43.16686" lon="0.94783">
        <ele>354</ele>
        <time>2022-08-01T07:21:13Z</time>
      </trkpt>
      <trkpt lat="43.16689" lon="0.94778">
        <ele>355</ele>
        <time>2022-08-01T07:21:21Z</time>
      </trkpt>
      <trkpt lat="43.16706" lon="0.94752">
        <ele>358</ele>
        <time>2022-08-01T07:21:57Z</time>
      </trkpt>
      <trkpt lat="43.16721" lon="0.94734">
        <ele>360</ele>
        <time>2022-08-01T07:22:21Z</time>
      </trkpt>
      <trkpt lat="43.16727" lon="0.9473">
        <ele>361</ele>
        <time>2022-08-01T07:22:31Z</time>
      </trkpt>
      <trkpt lat="43.16745" lon="0.94709">
        <ele>364</ele>
        <time>2022-08-01T07:23:04Z</time>
      </trkpt>
      <trkpt lat="43.16754" lon="0.94691">
        <ele>367</ele>
        <time>2022-08-01T07:23:24Z</time>
      </trkpt>
      <trkpt lat="43.1676" lon="0.94685">
        <ele>367</ele>
        <time>2022-08-01T07:23:36Z</time>
      </trkpt>
      <trkpt lat="43.16762" lon="0.94679">
        <ele>368</ele>
        <time>2022-08-01T07:23:42Z</time>
      </trkpt>
      <trkpt lat="43.16767" lon="0.94671">
        <ele>369</ele>
        <time>2022-08-01T07:23:52Z</time>
      </trkpt>
      <trkpt lat="43.16771" lon="0.94661">
        <ele>370</ele>
        <time>2022-08-01T07:24:03Z</time>
      </trkpt>
      <trkpt lat="43.16771" lon="0.94653">
        <ele>370</ele>
        <time>2022-08-01T07:24:10Z</time>
      </trkpt>
      <trkpt lat="43.16779" lon="0.94644">
        <ele>371</ele>
        <time>2022-08-01T07:24:23Z</time>
      </trkpt>
      <trkpt lat="43.16787" lon="0.94631">
        <ele>372</ele>
        <time>2022-08-01T07:24:38Z</time>
      </trkpt>
      <trkpt lat="43.16788" lon="0.94622">
        <ele>373</ele>
        <time>2022-08-01T07:24:44Z</time>
      </trkpt>
      <trkpt lat="43.16793" lon="0.94618">
        <ele>373</ele>
        <time>2022-08-01T07:24:50Z</time>
      </trkpt>
      <trkpt lat="43.16799" lon="0.94603">
        <ele>374</ele>
        <time>2022-08-01T07:25:22Z</time>
      </trkpt>
      <trkpt lat="43.16806" lon="0.94594">
        <ele>374</ele>
        <time>2022-08-01T07:25:33Z</time>
      </trkpt>
      <trkpt lat="43.16827" lon="0.94559">
        <ele>376</ele>
        <time>2022-08-01T07:26:07Z</time>
      </trkpt>
      <trkpt lat="43.16831" lon="0.94556">
        <ele>376</ele>
        <time>2022-08-01T07:26:11Z</time>
      </trkpt>
      <trkpt lat="43.16842" lon="0.94543">
        <ele>377</ele>
        <time>2022-08-01T07:26:25Z</time>
      </trkpt>
      <trkpt lat="43.16845" lon="0.94536">
        <ele>377</ele>
        <time>2022-08-01T07:26:31Z</time>
      </trkpt>
      <trkpt lat="43.16851" lon="0.9453">
        <ele>377</ele>
        <time>2022-08-01T07:26:37Z</time>
      </trkpt>
      <trkpt lat="43.16862" lon="0.94511">
        <ele>378</ele>
        <time>2022-08-01T07:26:56Z</time>
      </trkpt>
      <trkpt lat="43.16867" lon="0.94503">
        <ele>379</ele>
        <time>2022-08-01T07:27:04Z</time>
      </trkpt>
      <trkpt lat="43.16876" lon="0.94491">
        <ele>379</ele>
        <time>2022-08-01T07:27:15Z</time>
      </trkpt>
      <trkpt lat="43.16881" lon="0.94486">
        <ele>380</ele>
        <time>2022-08-01T07:27:21Z</time>
      </trkpt>
      <trkpt lat="43.16887" lon="0.94485">
        <ele>380</ele>
        <time>2022-08-01T07:27:27Z</time>
      </trkpt>
      <trkpt lat="43.16893" lon="0.94481">
        <ele>380</ele>
        <time>2022-08-01T07:27:36Z</time>
      </trkpt>
      <trkpt lat="43.16904" lon="0.94466">
        <ele>381</ele>
        <time>2022-08-01T07:27:53Z</time>
      </trkpt>
      <trkpt lat="43.16912" lon="0.94444">
        <ele>381</ele>
        <time>2022-08-01T07:28:14Z</time>
      </trkpt>
      <trkpt lat="43.16914" lon="0.94437">
        <ele>382</ele>
        <time>2022-08-01T07:28:23Z</time>
      </trkpt>
      <trkpt lat="43.16917" lon="0.94435">
        <ele>381</ele>
        <time>2022-08-01T07:30:17Z</time>
      </trkpt>
      <trkpt lat="43.16916" lon="0.94413">
        <ele>381</ele>
        <time>2022-08-01T07:30:37Z</time>
      </trkpt>
      <trkpt lat="43.16924" lon="0.94391">
        <ele>382</ele>
        <time>2022-08-01T07:30:55Z</time>
      </trkpt>
      <trkpt lat="43.16919" lon="0.94369">
        <ele>383</ele>
        <time>2022-08-01T07:31:13Z</time>
      </trkpt>
      <trkpt lat="43.16919" lon="0.94348">
        <ele>385</ele>
        <time>2022-08-01T07:31:28Z</time>
      </trkpt>
      <trkpt lat="43.16921" lon="0.94318">
        <ele>387</ele>
        <time>2022-08-01T07:31:53Z</time>
      </trkpt>
      <trkpt lat="43.16921" lon="0.94295">
        <ele>388</ele>
        <time>2022-08-01T07:32:13Z</time>
      </trkpt>
      <trkpt lat="43.16924" lon="0.9428">
        <ele>389</ele>
        <time>2022-08-01T07:32:26Z</time>
      </trkpt>
      <trkpt lat="43.16924" lon="0.94252">
        <ele>391</ele>
        <time>2022-08-01T07:32:49Z</time>
      </trkpt>
      <trkpt lat="43.16928" lon="0.94246">
        <ele>392</ele>
        <time>2022-08-01T07:32:56Z</time>
      </trkpt>
      <trkpt lat="43.16929" lon="0.94239">
        <ele>393</ele>
        <time>2022-08-01T07:33:04Z</time>
      </trkpt>
      <trkpt lat="43.16928" lon="0.94227">
        <ele>394</ele>
        <time>2022-08-01T07:33:16Z</time>
      </trkpt>
      <trkpt lat="43.1693" lon="0.94216">
        <ele>395</ele>
        <time>2022-08-01T07:33:28Z</time>
      </trkpt>
      <trkpt lat="43.16943" lon="0.94182">
        <ele>397</ele>
        <time>2022-08-01T07:33:59Z</time>
      </trkpt>
      <trkpt lat="43.16944" lon="0.94174">
        <ele>398</ele>
        <time>2022-08-01T07:34:05Z</time>
      </trkpt>
      <trkpt lat="43.16951" lon="0.94149">
        <ele>400</ele>
        <time>2022-08-01T07:34:32Z</time>
      </trkpt>
      <trkpt lat="43.16958" lon="0.94116">
        <ele>401</ele>
        <time>2022-08-01T07:34:59Z</time>
      </trkpt>
      <trkpt lat="43.1696" lon="0.94109">
        <ele>401</ele>
        <time>2022-08-01T07:35:05Z</time>
      </trkpt>
      <trkpt lat="43.1696" lon="0.94093">
        <ele>402</ele>
        <time>2022-08-01T07:35:17Z</time>
      </trkpt>
      <trkpt lat="43.16959" lon="0.94083">
        <ele>402</ele>
        <time>2022-08-01T07:35:25Z</time>
      </trkpt>
      <trkpt lat="43.16947" lon="0.94052">
        <ele>404</ele>
        <time>2022-08-01T07:35:54Z</time>
      </trkpt>
      <trkpt lat="43.16942" lon="0.94019">
        <ele>406</ele>
        <time>2022-08-01T07:36:18Z</time>
      </trkpt>
      <trkpt lat="43.16943" lon="0.93986">
        <ele>409</ele>
        <time>2022-08-01T07:36:51Z</time>
      </trkpt>
      <trkpt lat="43.16945" lon="0.93977">
        <ele>410</ele>
        <time>2022-08-01T07:37:00Z</time>
      </trkpt>
      <trkpt lat="43.16947" lon="0.9396">
        <ele>411</ele>
        <time>2022-08-01T07:37:14Z</time>
      </trkpt>
      <trkpt lat="43.16948" lon="0.93944">
        <ele>413</ele>
        <time>2022-08-01T07:37:27Z</time>
      </trkpt>
      <trkpt lat="43.16948" lon="0.93937">
        <ele>413</ele>
        <time>2022-08-01T07:37:33Z</time>
      </trkpt>
      <trkpt lat="43.1695" lon="0.93929">
        <ele>414</ele>
        <time>2022-08-01T07:37:41Z</time>
      </trkpt>
      <trkpt lat="43.1695" lon="0.93923">
        <ele>414</ele>
        <time>2022-08-01T07:37:46Z</time>
      </trkpt>
      <trkpt lat="43.16954" lon="0.93891">
        <ele>416</ele>
        <time>2022-08-01T07:38:10Z</time>
      </trkpt>
      <trkpt lat="43.16955" lon="0.93882">
        <ele>418</ele>
        <time>2022-08-01T07:38:27Z</time>
      </trkpt>
      <trkpt lat="43.16961" lon="0.93876">
        <ele>418</ele>
        <time>2022-08-01T07:39:18Z</time>
      </trkpt>
      <trkpt lat="43.16962" lon="0.93868">
        <ele>418</ele>
        <time>2022-08-01T07:39:25Z</time>
      </trkpt>
      <trkpt lat="43.16979" lon="0.93822">
        <ele>418</ele>
        <time>2022-08-01T07:39:56Z</time>
      </trkpt>
      <trkpt lat="43.16999" lon="0.93785">
        <ele>418</ele>
        <time>2022-08-01T07:40:26Z</time>
      </trkpt>
      <trkpt lat="43.17003" lon="0.9377">
        <ele>418</ele>
        <time>2022-08-01T07:40:35Z</time>
      </trkpt>
      <trkpt lat="43.17007" lon="0.93756">
        <ele>419</ele>
        <time>2022-08-01T07:40:44Z</time>
      </trkpt>
      <trkpt lat="43.17009" lon="0.9375">
        <ele>419</ele>
        <time>2022-08-01T07:40:48Z</time>
      </trkpt>
      <trkpt lat="43.17011" lon="0.93743">
        <ele>419</ele>
        <time>2022-08-01T07:40:53Z</time>
      </trkpt>
      <trkpt lat="43.17014" lon="0.93737">
        <ele>419</ele>
        <time>2022-08-01T07:40:58Z</time>
      </trkpt>
      <trkpt lat="43.17017" lon="0.93729">
        <ele>419</ele>
        <time>2022-08-01T07:41:57Z</time>
      </trkpt>
      <trkpt lat="43.1702" lon="0.93723">
        <ele>419</ele>
        <time>2022-08-01T07:42:02Z</time>
      </trkpt>
      <trkpt lat="43.17027" lon="0.93711">
        <ele>419</ele>
        <time>2022-08-01T07:42:12Z</time>
      </trkpt>
      <trkpt lat="43.17036" lon="0.9369">
        <ele>418</ele>
        <time>2022-08-01T07:42:31Z</time>
      </trkpt>
      <trkpt lat="43.17039" lon="0.93679">
        <ele>418</ele>
        <time>2022-08-01T07:42:40Z</time>
      </trkpt>
      <trkpt lat="43.17051" lon="0.93653">
        <ele>417</ele>
        <time>2022-08-01T07:43:00Z</time>
      </trkpt>
      <trkpt lat="43.17055" lon="0.93647">
        <ele>417</ele>
        <time>2022-08-01T07:43:05Z</time>
      </trkpt>
      <trkpt lat="43.17062" lon="0.93644">
        <ele>417</ele>
        <time>2022-08-01T07:43:13Z</time>
      </trkpt>
      <trkpt lat="43.17067" lon="0.93639">
        <ele>417</ele>
        <time>2022-08-01T07:43:19Z</time>
      </trkpt>
      <trkpt lat="43.17083" lon="0.93617">
        <ele>416</ele>
        <time>2022-08-01T07:43:44Z</time>
      </trkpt>
      <trkpt lat="43.17088" lon="0.93613">
        <ele>416</ele>
        <time>2022-08-01T07:43:49Z</time>
      </trkpt>
      <trkpt lat="43.17094" lon="0.936">
        <ele>415</ele>
        <time>2022-08-01T07:44:01Z</time>
      </trkpt>
      <trkpt lat="43.17098" lon="0.93594">
        <ele>415</ele>
        <time>2022-08-01T07:44:06Z</time>
      </trkpt>
      <trkpt lat="43.17122" lon="0.93559">
        <ele>414</ele>
        <time>2022-08-01T07:44:43Z</time>
      </trkpt>
      <trkpt lat="43.17131" lon="0.9354">
        <ele>414</ele>
        <time>2022-08-01T07:44:57Z</time>
      </trkpt>
      <trkpt lat="43.17156" lon="0.93513">
        <ele>414</ele>
        <time>2022-08-01T07:45:29Z</time>
      </trkpt>
      <trkpt lat="43.17159" lon="0.93506">
        <ele>414</ele>
        <time>2022-08-01T07:45:37Z</time>
      </trkpt>
      <trkpt lat="43.17161" lon="0.93499">
        <ele>414</ele>
        <time>2022-08-01T07:45:49Z</time>
      </trkpt>
      <trkpt lat="43.17167" lon="0.93494">
        <ele>414</ele>
        <time>2022-08-01T07:46:01Z</time>
      </trkpt>
      <trkpt lat="43.17187" lon="0.93468">
        <ele>414</ele>
        <time>2022-08-01T07:46:29Z</time>
      </trkpt>
      <trkpt lat="43.17192" lon="0.93466">
        <ele>414</ele>
        <time>2022-08-01T07:46:34Z</time>
      </trkpt>
      <trkpt lat="43.17213" lon="0.93463">
        <ele>415</ele>
        <time>2022-08-01T07:46:58Z</time>
      </trkpt>
      <trkpt lat="43.1722" lon="0.9346">
        <ele>415</ele>
        <time>2022-08-01T07:47:16Z</time>
      </trkpt>
      <trkpt lat="43.17225" lon="0.93465">
        <ele>415</ele>
        <time>2022-08-01T07:47:28Z</time>
      </trkpt>
      <trkpt lat="43.17227" lon="0.9347">
        <ele>415</ele>
        <time>2022-08-01T07:48:09Z</time>
      </trkpt>
      <trkpt lat="43.17229" lon="0.93468">
        <ele>415</ele>
        <time>2022-08-01T07:54:07Z</time>
      </trkpt>
      <trkpt lat="43.17227" lon="0.93462">
        <ele>415</ele>
        <time>2022-08-01T07:56:01Z</time>
      </trkpt>
      <trkpt lat="43.17221" lon="0.93461">
        <ele>415</ele>
        <time>2022-08-01T07:57:29Z</time>
      </trkpt>
      <trkpt lat="43.17233" lon="0.93468">
        <ele>416</ele>
        <time>2022-08-01T08:03:14Z</time>
      </trkpt>
      <trkpt lat="43.17226" lon="0.93469">
        <ele>416</ele>
        <time>2022-08-01T08:13:54Z</time>
      </trkpt>
      <trkpt lat="43.17227" lon="0.9346">
        <ele>416</ele>
        <time>2022-08-01T08:14:30Z</time>
      </trkpt>
      <trkpt lat="43.17231" lon="0.93456">
        <ele>416</ele>
        <time>2022-08-01T08:14:34Z</time>
      </trkpt>
      <trkpt lat="43.17254" lon="0.93437">
        <ele>417</ele>
        <time>2022-08-01T08:14:58Z</time>
      </trkpt>
      <trkpt lat="43.17289" lon="0.9342">
        <ele>418</ele>
        <time>2022-08-01T08:15:30Z</time>
      </trkpt>
      <trkpt lat="43.17294" lon="0.93417">
        <ele>418</ele>
        <time>2022-08-01T08:15:34Z</time>
      </trkpt>
      <trkpt lat="43.17299" lon="0.93416">
        <ele>418</ele>
        <time>2022-08-01T08:15:38Z</time>
      </trkpt>
      <trkpt lat="43.17331" lon="0.93396">
        <ele>417</ele>
        <time>2022-08-01T08:16:10Z</time>
      </trkpt>
      <trkpt lat="43.17349" lon="0.93384">
        <ele>416</ele>
        <time>2022-08-01T08:16:27Z</time>
      </trkpt>
      <trkpt lat="43.17352" lon="0.93379">
        <ele>416</ele>
        <time>2022-08-01T08:16:32Z</time>
      </trkpt>
      <trkpt lat="43.17374" lon="0.9336">
        <ele>415</ele>
        <time>2022-08-01T08:16:55Z</time>
      </trkpt>
      <trkpt lat="43.17377" lon="0.93355">
        <ele>414</ele>
        <time>2022-08-01T08:17:00Z</time>
      </trkpt>
      <trkpt lat="43.17391" lon="0.93346">
        <ele>414</ele>
        <time>2022-08-01T08:17:12Z</time>
      </trkpt>
      <trkpt lat="43.17399" lon="0.93337">
        <ele>414</ele>
        <time>2022-08-01T08:17:21Z</time>
      </trkpt>
      <trkpt lat="43.17431" lon="0.9331">
        <ele>413</ele>
        <time>2022-08-01T08:17:56Z</time>
      </trkpt>
      <trkpt lat="43.17434" lon="0.93306">
        <ele>413</ele>
        <time>2022-08-01T08:17:59Z</time>
      </trkpt>
      <trkpt lat="43.1744" lon="0.93303">
        <ele>413</ele>
        <time>2022-08-01T08:18:05Z</time>
      </trkpt>
      <trkpt lat="43.17445" lon="0.93309">
        <ele>413</ele>
        <time>2022-08-01T08:18:39Z</time>
      </trkpt>
      <trkpt lat="43.17451" lon="0.93311">
        <ele>412</ele>
        <time>2022-08-01T08:19:15Z</time>
      </trkpt>
      <trkpt lat="43.1746" lon="0.93318">
        <ele>411</ele>
        <time>2022-08-01T08:19:29Z</time>
      </trkpt>
      <trkpt lat="43.17466" lon="0.9332">
        <ele>409</ele>
        <time>2022-08-01T08:19:41Z</time>
      </trkpt>
      <trkpt lat="43.17475" lon="0.93319">
        <ele>408</ele>
        <time>2022-08-01T08:19:52Z</time>
      </trkpt>
      <trkpt lat="43.17481" lon="0.93321">
        <ele>407</ele>
        <time>2022-08-01T08:20:06Z</time>
      </trkpt>
      <trkpt lat="43.17489" lon="0.93328">
        <ele>406</ele>
        <time>2022-08-01T08:20:18Z</time>
      </trkpt>
      <trkpt lat="43.17489" lon="0.93326">
        <ele>406</ele>
        <time>2022-08-01T08:20:42Z</time>
      </trkpt>
      <trkpt lat="43.17495" lon="0.93324">
        <ele>405</ele>
        <time>2022-08-01T08:20:49Z</time>
      </trkpt>
      <trkpt lat="43.17499" lon="0.93326">
        <ele>405</ele>
        <time>2022-08-01T08:20:53Z</time>
      </trkpt>
      <trkpt lat="43.17501" lon="0.93332">
        <ele>405</ele>
        <time>2022-08-01T08:21:07Z</time>
      </trkpt>
      <trkpt lat="43.17505" lon="0.93335">
        <ele>405</ele>
        <time>2022-08-01T08:21:37Z</time>
      </trkpt>
      <trkpt lat="43.17513" lon="0.93326">
        <ele>404</ele>
        <time>2022-08-01T08:21:45Z</time>
      </trkpt>
      <trkpt lat="43.1752" lon="0.93327">
        <ele>403</ele>
        <time>2022-08-01T08:21:53Z</time>
      </trkpt>
      <trkpt lat="43.17525" lon="0.93328">
        <ele>402</ele>
        <time>2022-08-01T08:22:01Z</time>
      </trkpt>
      <trkpt lat="43.1753" lon="0.9333">
        <ele>402</ele>
        <time>2022-08-01T08:22:09Z</time>
      </trkpt>
      <trkpt lat="43.17539" lon="0.93332">
        <ele>401</ele>
        <time>2022-08-01T08:22:21Z</time>
      </trkpt>
      <trkpt lat="43.17565" lon="0.93329">
        <ele>398</ele>
        <time>2022-08-01T08:22:51Z</time>
      </trkpt>
      <trkpt lat="43.1758" lon="0.93333">
        <ele>396</ele>
        <time>2022-08-01T08:23:06Z</time>
      </trkpt>
      <trkpt lat="43.17584" lon="0.93337">
        <ele>396</ele>
        <time>2022-08-01T08:23:11Z</time>
      </trkpt>
      <trkpt lat="43.1758" lon="0.93344">
        <ele>397</ele>
        <time>2022-08-01T08:23:31Z</time>
      </trkpt>
      <trkpt lat="43.17579" lon="0.93353">
        <ele>396</ele>
        <time>2022-08-01T08:23:43Z</time>
      </trkpt>
      <trkpt lat="43.17574" lon="0.93365">
        <ele>394</ele>
        <time>2022-08-01T08:23:54Z</time>
      </trkpt>
      <trkpt lat="43.17568" lon="0.93372">
        <ele>393</ele>
        <time>2022-08-01T08:24:02Z</time>
      </trkpt>
      <trkpt lat="43.17565" lon="0.93382">
        <ele>392</ele>
        <time>2022-08-01T08:24:15Z</time>
      </trkpt>
      <trkpt lat="43.17548" lon="0.93404">
        <ele>391</ele>
        <time>2022-08-01T08:24:35Z</time>
      </trkpt>
      <trkpt lat="43.17544" lon="0.93411">
        <ele>391</ele>
        <time>2022-08-01T08:24:46Z</time>
      </trkpt>
      <trkpt lat="43.17545" lon="0.93417">
        <ele>389</ele>
        <time>2022-08-01T08:24:58Z</time>
      </trkpt>
      <trkpt lat="43.17544" lon="0.93435">
        <ele>388</ele>
        <time>2022-08-01T08:25:16Z</time>
      </trkpt>
      <trkpt lat="43.17544" lon="0.93443">
        <ele>387</ele>
        <time>2022-08-01T08:25:29Z</time>
      </trkpt>
      <trkpt lat="43.17546" lon="0.93451">
        <ele>385</ele>
        <time>2022-08-01T08:26:05Z</time>
      </trkpt>
      <trkpt lat="43.17543" lon="0.93459">
        <ele>384</ele>
        <time>2022-08-01T08:26:12Z</time>
      </trkpt>
      <trkpt lat="43.17546" lon="0.93465">
        <ele>383</ele>
        <time>2022-08-01T08:26:26Z</time>
      </trkpt>
      <trkpt lat="43.17546" lon="0.93478">
        <ele>381</ele>
        <time>2022-08-01T08:26:45Z</time>
      </trkpt>
      <trkpt lat="43.17547" lon="0.93498">
        <ele>379</ele>
        <time>2022-08-01T08:27:04Z</time>
      </trkpt>
      <trkpt lat="43.17545" lon="0.93508">
        <ele>378</ele>
        <time>2022-08-01T08:27:12Z</time>
      </trkpt>
      <trkpt lat="43.17546" lon="0.93517">
        <ele>377</ele>
        <time>2022-08-01T08:27:25Z</time>
      </trkpt>
      <trkpt lat="43.17546" lon="0.93541">
        <ele>374</ele>
        <time>2022-08-01T08:28:01Z</time>
      </trkpt>
      <trkpt lat="43.17548" lon="0.93548">
        <ele>372</ele>
        <time>2022-08-01T08:28:13Z</time>
      </trkpt>
      <trkpt lat="43.1755" lon="0.9356">
        <ele>371</ele>
        <time>2022-08-01T08:28:31Z</time>
      </trkpt>
      <trkpt lat="43.17547" lon="0.93566">
        <ele>371</ele>
        <time>2022-08-01T08:28:44Z</time>
      </trkpt>
      <trkpt lat="43.17556" lon="0.93572">
        <ele>370</ele>
        <time>2022-08-01T08:29:19Z</time>
      </trkpt>
      <trkpt lat="43.17562" lon="0.93578">
        <ele>369</ele>
        <time>2022-08-01T08:29:27Z</time>
      </trkpt>
      <trkpt lat="43.17566" lon="0.93588">
        <ele>369</ele>
        <time>2022-08-01T08:29:35Z</time>
      </trkpt>
      <trkpt lat="43.17569" lon="0.93594">
        <ele>370</ele>
        <time>2022-08-01T08:29:40Z</time>
      </trkpt>
      <trkpt lat="43.17571" lon="0.93603">
        <ele>370</ele>
        <time>2022-08-01T08:29:48Z</time>
      </trkpt>
      <trkpt lat="43.17573" lon="0.93613">
        <ele>370</ele>
        <time>2022-08-01T08:29:55Z</time>
      </trkpt>
      <trkpt lat="43.17572" lon="0.93628">
        <ele>369</ele>
        <time>2022-08-01T08:30:08Z</time>
      </trkpt>
      <trkpt lat="43.17574" lon="0.9366">
        <ele>367</ele>
        <time>2022-08-01T08:30:39Z</time>
      </trkpt>
      <trkpt lat="43.17576" lon="0.93667">
        <ele>366</ele>
        <time>2022-08-01T08:30:44Z</time>
      </trkpt>
      <trkpt lat="43.17575" lon="0.93684">
        <ele>365</ele>
        <time>2022-08-01T08:31:00Z</time>
      </trkpt>
      <trkpt lat="43.17577" lon="0.9369">
        <ele>364</ele>
        <time>2022-08-01T08:31:09Z</time>
      </trkpt>
      <trkpt lat="43.1758" lon="0.93695">
        <ele>364</ele>
        <time>2022-08-01T08:31:14Z</time>
      </trkpt>
      <trkpt lat="43.17577" lon="0.93703">
        <ele>365</ele>
        <time>2022-08-01T08:31:32Z</time>
      </trkpt>
      <trkpt lat="43.17583" lon="0.93708">
        <ele>364</ele>
        <time>2022-08-01T08:31:51Z</time>
      </trkpt>
      <trkpt lat="43.17598" lon="0.9372">
        <ele>364</ele>
        <time>2022-08-01T08:32:07Z</time>
      </trkpt>
      <trkpt lat="43.17611" lon="0.93754">
        <ele>363</ele>
        <time>2022-08-01T08:32:32Z</time>
      </trkpt>
      <trkpt lat="43.17611" lon="0.93763">
        <ele>363</ele>
        <time>2022-08-01T08:32:37Z</time>
      </trkpt>
      <trkpt lat="43.17613" lon="0.9377">
        <ele>363</ele>
        <time>2022-08-01T08:32:41Z</time>
      </trkpt>
      <trkpt lat="43.17617" lon="0.93776">
        <ele>363</ele>
        <time>2022-08-01T08:32:47Z</time>
      </trkpt>
      <trkpt lat="43.17622" lon="0.9378">
        <ele>363</ele>
        <time>2022-08-01T08:32:55Z</time>
      </trkpt>
      <trkpt lat="43.17631" lon="0.93781">
        <ele>364</ele>
        <time>2022-08-01T08:33:07Z</time>
      </trkpt>
      <trkpt lat="43.17646" lon="0.93773">
        <ele>364</ele>
        <time>2022-08-01T08:33:30Z</time>
      </trkpt>
      <trkpt lat="43.17651" lon="0.93767">
        <ele>365</ele>
        <time>2022-08-01T08:33:44Z</time>
      </trkpt>
      <trkpt lat="43.17658" lon="0.93762">
        <ele>365</ele>
        <time>2022-08-01T08:33:56Z</time>
      </trkpt>
      <trkpt lat="43.17663" lon="0.93761">
        <ele>365</ele>
        <time>2022-08-01T08:34:00Z</time>
      </trkpt>
      <trkpt lat="43.17669" lon="0.93759">
        <ele>364</ele>
        <time>2022-08-01T08:34:08Z</time>
      </trkpt>
      <trkpt lat="43.17673" lon="0.9376">
        <ele>363</ele>
        <time>2022-08-01T08:34:12Z</time>
      </trkpt>
      <trkpt lat="43.17686" lon="0.93772">
        <ele>360</ele>
        <time>2022-08-01T08:34:38Z</time>
      </trkpt>
      <trkpt lat="43.17703" lon="0.93771">
        <ele>357</ele>
        <time>2022-08-01T08:35:02Z</time>
      </trkpt>
      <trkpt lat="43.17708" lon="0.93773">
        <ele>356</ele>
        <time>2022-08-01T08:35:09Z</time>
      </trkpt>
      <trkpt lat="43.17714" lon="0.93772">
        <ele>355</ele>
        <time>2022-08-01T08:35:21Z</time>
      </trkpt>
      <trkpt lat="43.17719" lon="0.93767">
        <ele>356</ele>
        <time>2022-08-01T08:35:26Z</time>
      </trkpt>
      <trkpt lat="43.17726" lon="0.93768">
        <ele>356</ele>
        <time>2022-08-01T08:35:33Z</time>
      </trkpt>
      <trkpt lat="43.17729" lon="0.93772">
        <ele>357</ele>
        <time>2022-08-01T08:35:38Z</time>
      </trkpt>
      <trkpt lat="43.1772" lon="0.93774">
        <ele>357</ele>
        <time>2022-08-01T08:36:06Z</time>
      </trkpt>
      <trkpt lat="43.17717" lon="0.93784">
        <ele>355</ele>
        <time>2022-08-01T08:36:18Z</time>
      </trkpt>
      <trkpt lat="43.17719" lon="0.93797">
        <ele>355</ele>
        <time>2022-08-01T08:36:30Z</time>
      </trkpt>
      <trkpt lat="43.17725" lon="0.93821">
        <ele>353</ele>
        <time>2022-08-01T08:36:54Z</time>
      </trkpt>
      <trkpt lat="43.1773" lon="0.93845">
        <ele>351</ele>
        <time>2022-08-01T08:37:26Z</time>
      </trkpt>
      <trkpt lat="43.17731" lon="0.93854">
        <ele>350</ele>
        <time>2022-08-01T08:37:34Z</time>
      </trkpt>
      <trkpt lat="43.1773" lon="0.93861">
        <ele>350</ele>
        <time>2022-08-01T08:37:46Z</time>
      </trkpt>
      <trkpt lat="43.17743" lon="0.93885">
        <ele>348</ele>
        <time>2022-08-01T08:38:11Z</time>
      </trkpt>
      <trkpt lat="43.17742" lon="0.93897">
        <ele>347</ele>
        <time>2022-08-01T08:38:22Z</time>
      </trkpt>
      <trkpt lat="43.17734" lon="0.93918">
        <ele>346</ele>
        <time>2022-08-01T08:38:44Z</time>
      </trkpt>
      <trkpt lat="43.17716" lon="0.93947">
        <ele>345</ele>
        <time>2022-08-01T08:39:20Z</time>
      </trkpt>
      <trkpt lat="43.17711" lon="0.93954">
        <ele>344</ele>
        <time>2022-08-01T08:39:27Z</time>
      </trkpt>
      <trkpt lat="43.17708" lon="0.9396">
        <ele>344</ele>
        <time>2022-08-01T08:39:41Z</time>
      </trkpt>
      <trkpt lat="43.17709" lon="0.93969">
        <ele>343</ele>
        <time>2022-08-01T08:39:59Z</time>
      </trkpt>
      <trkpt lat="43.17713" lon="0.93979">
        <ele>342</ele>
        <time>2022-08-01T08:40:12Z</time>
      </trkpt>
      <trkpt lat="43.17704" lon="0.94014">
        <ele>342</ele>
        <time>2022-08-01T08:40:38Z</time>
      </trkpt>
      <trkpt lat="43.17692" lon="0.94034">
        <ele>342</ele>
        <time>2022-08-01T08:40:54Z</time>
      </trkpt>
      <trkpt lat="43.17668" lon="0.94056">
        <ele>341</ele>
        <time>2022-08-01T08:41:24Z</time>
      </trkpt>
      <trkpt lat="43.17665" lon="0.94065">
        <ele>341</ele>
        <time>2022-08-01T08:41:36Z</time>
      </trkpt>
      <trkpt lat="43.17661" lon="0.94073">
        <ele>341</ele>
        <time>2022-08-01T08:41:44Z</time>
      </trkpt>
      <trkpt lat="43.17659" lon="0.94082">
        <ele>341</ele>
        <time>2022-08-01T08:42:09Z</time>
      </trkpt>
      <trkpt lat="43.17654" lon="0.94089">
        <ele>341</ele>
        <time>2022-08-01T08:42:17Z</time>
      </trkpt>
      <trkpt lat="43.17648" lon="0.94112">
        <ele>339</ele>
        <time>2022-08-01T08:42:33Z</time>
      </trkpt>
      <trkpt lat="43.17638" lon="0.94128">
        <ele>338</ele>
        <time>2022-08-01T08:42:50Z</time>
      </trkpt>
      <trkpt lat="43.17636" lon="0.94144">
        <ele>338</ele>
        <time>2022-08-01T08:43:02Z</time>
      </trkpt>
      <trkpt lat="43.17632" lon="0.94159">
        <ele>337</ele>
        <time>2022-08-01T08:43:12Z</time>
      </trkpt>
      <trkpt lat="43.17633" lon="0.94176">
        <ele>337</ele>
        <time>2022-08-01T08:43:25Z</time>
      </trkpt>
      <trkpt lat="43.1764" lon="0.94212">
        <ele>335</ele>
        <time>2022-08-01T08:43:56Z</time>
      </trkpt>
      <trkpt lat="43.1764" lon="0.94221">
        <ele>334</ele>
        <time>2022-08-01T08:44:08Z</time>
      </trkpt>
      <trkpt lat="43.17644" lon="0.94231">
        <ele>334</ele>
        <time>2022-08-01T08:44:20Z</time>
      </trkpt>
      <trkpt lat="43.17648" lon="0.94239">
        <ele>334</ele>
        <time>2022-08-01T08:44:32Z</time>
      </trkpt>
      <trkpt lat="43.17652" lon="0.94245">
        <ele>333</ele>
        <time>2022-08-01T08:44:44Z</time>
      </trkpt>
      <trkpt lat="43.17664" lon="0.94269">
        <ele>332</ele>
        <time>2022-08-01T08:45:29Z</time>
      </trkpt>
      <trkpt lat="43.17668" lon="0.94286">
        <ele>332</ele>
        <time>2022-08-01T08:45:49Z</time>
      </trkpt>
      <trkpt lat="43.17683" lon="0.94298">
        <ele>332</ele>
        <time>2022-08-01T08:46:09Z</time>
      </trkpt>
      <trkpt lat="43.17687" lon="0.94306">
        <ele>332</ele>
        <time>2022-08-01T08:46:16Z</time>
      </trkpt>
      <trkpt lat="43.17692" lon="0.94311">
        <ele>331</ele>
        <time>2022-08-01T08:46:22Z</time>
      </trkpt>
      <trkpt lat="43.17699" lon="0.94325">
        <ele>331</ele>
        <time>2022-08-01T08:46:33Z</time>
      </trkpt>
      <trkpt lat="43.177" lon="0.94333">
        <ele>331</ele>
        <time>2022-08-01T08:46:39Z</time>
      </trkpt>
      <trkpt lat="43.17698" lon="0.9434">
        <ele>330</ele>
        <time>2022-08-01T08:46:53Z</time>
      </trkpt>
      <trkpt lat="43.17701" lon="0.94348">
        <ele>331</ele>
        <time>2022-08-01T08:47:18Z</time>
      </trkpt>
      <trkpt lat="43.17708" lon="0.94356">
        <ele>330</ele>
        <time>2022-08-01T08:47:43Z</time>
      </trkpt>
      <trkpt lat="43.17711" lon="0.94364">
        <ele>330</ele>
        <time>2022-08-01T08:47:49Z</time>
      </trkpt>
      <trkpt lat="43.1771" lon="0.94391">
        <ele>329</ele>
        <time>2022-08-01T08:48:09Z</time>
      </trkpt>
      <trkpt lat="43.17711" lon="0.94418">
        <ele>327</ele>
        <time>2022-08-01T08:48:29Z</time>
      </trkpt>
      <trkpt lat="43.17714" lon="0.94432">
        <ele>326</ele>
        <time>2022-08-01T08:48:39Z</time>
      </trkpt>
      <trkpt lat="43.17715" lon="0.94467">
        <ele>325</ele>
        <time>2022-08-01T08:49:02Z</time>
      </trkpt>
      <trkpt lat="43.17719" lon="0.94491">
        <ele>324</ele>
        <time>2022-08-01T08:49:21Z</time>
      </trkpt>
      <trkpt lat="43.17721" lon="0.94497">
        <ele>324</ele>
        <time>2022-08-01T08:49:25Z</time>
      </trkpt>
      <trkpt lat="43.17723" lon="0.94504">
        <ele>324</ele>
        <time>2022-08-01T08:49:32Z</time>
      </trkpt>
      <trkpt lat="43.17727" lon="0.94527">
        <ele>324</ele>
        <time>2022-08-01T08:49:48Z</time>
      </trkpt>
      <trkpt lat="43.17727" lon="0.94538">
        <ele>323</ele>
        <time>2022-08-01T08:50:51Z</time>
      </trkpt>
      <trkpt lat="43.1773" lon="0.94545">
        <ele>323</ele>
        <time>2022-08-01T08:50:58Z</time>
      </trkpt>
      <trkpt lat="43.17733" lon="0.94557">
        <ele>322</ele>
        <time>2022-08-01T08:51:06Z</time>
      </trkpt>
      <trkpt lat="43.17739" lon="0.94568">
        <ele>322</ele>
        <time>2022-08-01T08:51:15Z</time>
      </trkpt>
      <trkpt lat="43.17742" lon="0.94583">
        <ele>323</ele>
        <time>2022-08-01T08:51:27Z</time>
      </trkpt>
      <trkpt lat="43.17746" lon="0.94589">
        <ele>323</ele>
        <time>2022-08-01T08:51:35Z</time>
      </trkpt>
      <trkpt lat="43.17751" lon="0.94598">
        <ele>324</ele>
        <time>2022-08-01T08:51:47Z</time>
      </trkpt>
      <trkpt lat="43.17752" lon="0.94606">
        <ele>324</ele>
        <time>2022-08-01T08:52:00Z</time>
      </trkpt>
      <trkpt lat="43.17751" lon="0.94613">
        <ele>324</ele>
        <time>2022-08-01T08:52:05Z</time>
      </trkpt>
      <trkpt lat="43.17742" lon="0.94632">
        <ele>323</ele>
        <time>2022-08-01T08:52:19Z</time>
      </trkpt>
      <trkpt lat="43.17739" lon="0.94638">
        <ele>323</ele>
        <time>2022-08-01T08:52:23Z</time>
      </trkpt>
      <trkpt lat="43.17741" lon="0.94645">
        <ele>323</ele>
        <time>2022-08-01T08:52:31Z</time>
      </trkpt>
      <trkpt lat="43.17746" lon="0.94649">
        <ele>323</ele>
        <time>2022-08-01T08:52:37Z</time>
      </trkpt>
      <trkpt lat="43.17765" lon="0.94658">
        <ele>324</ele>
        <time>2022-08-01T08:52:56Z</time>
      </trkpt>
      <trkpt lat="43.17789" lon="0.94659">
        <ele>324</ele>
        <time>2022-08-01T08:53:17Z</time>
      </trkpt>
      <trkpt lat="43.17795" lon="0.94657">
        <ele>324</ele>
        <time>2022-08-01T08:53:21Z</time>
      </trkpt>
      <trkpt lat="43.17806" lon="0.9465">
        <ele>325</ele>
        <time>2022-08-01T08:53:31Z</time>
      </trkpt>
      <trkpt lat="43.17811" lon="0.9465">
        <ele>325</ele>
        <time>2022-08-01T08:53:35Z</time>
      </trkpt>
      <trkpt lat="43.17829" lon="0.94646">
        <ele>326</ele>
        <time>2022-08-01T08:53:50Z</time>
      </trkpt>
      <trkpt lat="43.17834" lon="0.94647">
        <ele>326</ele>
        <time>2022-08-01T08:53:56Z</time>
      </trkpt>
      <trkpt lat="43.17842" lon="0.94648">
        <ele>326</ele>
        <time>2022-08-01T08:54:03Z</time>
      </trkpt>
      <trkpt lat="43.17857" lon="0.94652">
        <ele>326</ele>
        <time>2022-08-01T08:54:15Z</time>
      </trkpt>
      <trkpt lat="43.17863" lon="0.94663">
        <ele>326</ele>
        <time>2022-08-01T08:54:42Z</time>
      </trkpt>
      <trkpt lat="43.1787" lon="0.94661">
        <ele>326</ele>
        <time>2022-08-01T08:55:13Z</time>
      </trkpt>
      <trkpt lat="43.17878" lon="0.94657">
        <ele>326</ele>
        <time>2022-08-01T08:55:23Z</time>
      </trkpt>
      <trkpt lat="43.17883" lon="0.94654">
        <ele>326</ele>
        <time>2022-08-01T08:55:29Z</time>
      </trkpt>
      <trkpt lat="43.17893" lon="0.94653">
        <ele>326</ele>
        <time>2022-08-01T08:55:38Z</time>
      </trkpt>
      <trkpt lat="43.17924" lon="0.94646">
        <ele>327</ele>
        <time>2022-08-01T08:56:02Z</time>
      </trkpt>
      <trkpt lat="43.17934" lon="0.94646">
        <ele>327</ele>
        <time>2022-08-01T08:56:10Z</time>
      </trkpt>
      <trkpt lat="43.17944" lon="0.94643">
        <ele>328</ele>
        <time>2022-08-01T08:56:19Z</time>
      </trkpt>
      <trkpt lat="43.17949" lon="0.9464">
        <ele>328</ele>
        <time>2022-08-01T08:56:22Z</time>
      </trkpt>
      <trkpt lat="43.17968" lon="0.94633">
        <ele>329</ele>
        <time>2022-08-01T08:56:39Z</time>
      </trkpt>
      <trkpt lat="43.17974" lon="0.94633">
        <ele>329</ele>
        <time>2022-08-01T08:56:43Z</time>
      </trkpt>
      <trkpt lat="43.17979" lon="0.94631">
        <ele>329</ele>
        <time>2022-08-01T08:56:48Z</time>
      </trkpt>
      <trkpt lat="43.17984" lon="0.9463">
        <ele>329</ele>
        <time>2022-08-01T08:56:52Z</time>
      </trkpt>
      <trkpt lat="43.17989" lon="0.94628">
        <ele>330</ele>
        <time>2022-08-01T08:56:57Z</time>
      </trkpt>
      <trkpt lat="43.18" lon="0.94626">
        <ele>331</ele>
        <time>2022-08-01T08:57:06Z</time>
      </trkpt>
      <trkpt lat="43.18019" lon="0.94614">
        <ele>332</ele>
        <time>2022-08-01T08:57:25Z</time>
      </trkpt>
      <trkpt lat="43.18024" lon="0.94613">
        <ele>332</ele>
        <time>2022-08-01T08:57:30Z</time>
      </trkpt>
      <trkpt lat="43.18051" lon="0.94615">
        <ele>335</ele>
        <time>2022-08-01T08:57:58Z</time>
      </trkpt>
      <trkpt lat="43.18066" lon="0.94623">
        <ele>337</ele>
        <time>2022-08-01T08:58:15Z</time>
      </trkpt>
      <trkpt lat="43.18095" lon="0.9464">
        <ele>341</ele>
        <time>2022-08-01T08:58:51Z</time>
      </trkpt>
      <trkpt lat="43.181" lon="0.94643">
        <ele>341</ele>
        <time>2022-08-01T08:58:59Z</time>
      </trkpt>
      <trkpt lat="43.18106" lon="0.94644">
        <ele>342</ele>
        <time>2022-08-01T09:00:00Z</time>
      </trkpt>
      <trkpt lat="43.1811" lon="0.94643">
        <ele>343</ele>
        <time>2022-08-01T09:00:06Z</time>
      </trkpt>
      <trkpt lat="43.18115" lon="0.94641">
        <ele>343</ele>
        <time>2022-08-01T09:00:11Z</time>
      </trkpt>
      <trkpt lat="43.1812" lon="0.94637">
        <ele>344</ele>
        <time>2022-08-01T09:00:19Z</time>
      </trkpt>
      <trkpt lat="43.18123" lon="0.94631">
        <ele>345</ele>
        <time>2022-08-01T09:00:25Z</time>
      </trkpt>
      <trkpt lat="43.1814" lon="0.94613">
        <ele>348</ele>
        <time>2022-08-01T09:00:47Z</time>
      </trkpt>
      <trkpt lat="43.18143" lon="0.94607">
        <ele>348</ele>
        <time>2022-08-01T09:00:52Z</time>
      </trkpt>
      <trkpt lat="43.18152" lon="0.94602">
        <ele>349</ele>
        <time>2022-08-01T09:01:03Z</time>
      </trkpt>
      <trkpt lat="43.18166" lon="0.94598">
        <ele>350</ele>
        <time>2022-08-01T09:01:15Z</time>
      </trkpt>
      <trkpt lat="43.1817" lon="0.94598">
        <ele>351</ele>
        <time>2022-08-01T09:01:19Z</time>
      </trkpt>
      <trkpt lat="43.18184" lon="0.94593">
        <ele>351</ele>
        <time>2022-08-01T09:01:35Z</time>
      </trkpt>
      <trkpt lat="43.18207" lon="0.94576">
        <ele>352</ele>
        <time>2022-08-01T09:01:55Z</time>
      </trkpt>
      <trkpt lat="43.18227" lon="0.94554">
        <ele>352</ele>
        <time>2022-08-01T09:02:17Z</time>
      </trkpt>
      <trkpt lat="43.18233" lon="0.94557">
        <ele>354</ele>
        <time>2022-08-01T09:02:28Z</time>
      </trkpt>
      <trkpt lat="43.18235" lon="0.94565">
        <ele>354</ele>
        <time>2022-08-01T09:02:34Z</time>
      </trkpt>
      <trkpt lat="43.18234" lon="0.94572">
        <ele>355</ele>
        <time>2022-08-01T09:02:38Z</time>
      </trkpt>
      <trkpt lat="43.18221" lon="0.94601">
        <ele>356</ele>
        <time>2022-08-01T09:02:59Z</time>
      </trkpt>
      <trkpt lat="43.18213" lon="0.94613">
        <ele>357</ele>
        <time>2022-08-01T09:03:11Z</time>
      </trkpt>
      <trkpt lat="43.18209" lon="0.94628">
        <ele>357</ele>
        <time>2022-08-01T09:03:20Z</time>
      </trkpt>
      <trkpt lat="43.18187" lon="0.94674">
        <ele>359</ele>
        <time>2022-08-01T09:03:52Z</time>
      </trkpt>
      <trkpt lat="43.18185" lon="0.9468">
        <ele>359</ele>
        <time>2022-08-01T09:03:57Z</time>
      </trkpt>
      <trkpt lat="43.18181" lon="0.94682">
        <ele>359</ele>
        <time>2022-08-01T09:03:59Z</time>
      </trkpt>
      <trkpt lat="43.18178" lon="0.94685">
        <ele>359</ele>
        <time>2022-08-01T09:04:03Z</time>
      </trkpt>
      <trkpt lat="43.18178" lon="0.94684">
        <ele>359</ele>
        <time>2022-08-01T09:04:32Z</time>
      </trkpt>
      <trkpt lat="43.1818" lon="0.94682">
        <ele>359</ele>
        <time>2022-08-01T09:05:02Z</time>
      </trkpt>
      <trkpt lat="43.18184" lon="0.94683">
        <ele>359</ele>
        <time>2022-08-01T09:05:20Z</time>
      </trkpt>
      <trkpt lat="43.18175" lon="0.94695">
        <ele>359</ele>
        <time>2022-08-01T09:05:29Z</time>
      </trkpt>
      <trkpt lat="43.1817" lon="0.94699">
        <ele>359</ele>
        <time>2022-08-01T09:05:33Z</time>
      </trkpt>
      <trkpt lat="43.18164" lon="0.94709">
        <ele>358</ele>
        <time>2022-08-01T09:05:42Z</time>
      </trkpt>
      <trkpt lat="43.1816" lon="0.94712">
        <ele>358</ele>
        <time>2022-08-01T09:05:45Z</time>
      </trkpt>
      <trkpt lat="43.18149" lon="0.94724">
        <ele>358</ele>
        <time>2022-08-01T09:05:56Z</time>
      </trkpt>
      <trkpt lat="43.18146" lon="0.94735">
        <ele>358</ele>
        <time>2022-08-01T09:06:03Z</time>
      </trkpt>
      <trkpt lat="43.18146" lon="0.94746">
        <ele>359</ele>
        <time>2022-08-01T09:06:09Z</time>
      </trkpt>
      <trkpt lat="43.18149" lon="0.94751">
        <ele>359</ele>
        <time>2022-08-01T09:06:29Z</time>
      </trkpt>
      <trkpt lat="43.18145" lon="0.94753">
        <ele>359</ele>
        <time>2022-08-01T09:06:41Z</time>
      </trkpt>
      <trkpt lat="43.18143" lon="0.94774">
        <ele>359</ele>
        <time>2022-08-01T09:06:53Z</time>
      </trkpt>
      <trkpt lat="43.18141" lon="0.94795">
        <ele>360</ele>
        <time>2022-08-01T09:07:05Z</time>
      </trkpt>
      <trkpt lat="43.18142" lon="0.94834">
        <ele>361</ele>
        <time>2022-08-01T09:07:29Z</time>
      </trkpt>
      <trkpt lat="43.18141" lon="0.94846">
        <ele>361</ele>
        <time>2022-08-01T09:07:36Z</time>
      </trkpt>
      <trkpt lat="43.18141" lon="0.94873">
        <ele>362</ele>
        <time>2022-08-01T09:07:52Z</time>
      </trkpt>
      <trkpt lat="43.1814" lon="0.94878">
        <ele>362</ele>
        <time>2022-08-01T09:07:55Z</time>
      </trkpt>
      <trkpt lat="43.18139" lon="0.9491">
        <ele>362</ele>
        <time>2022-08-01T09:08:14Z</time>
      </trkpt>
      <trkpt lat="43.18139" lon="0.94916">
        <ele>362</ele>
        <time>2022-08-01T09:08:18Z</time>
      </trkpt>
      <trkpt lat="43.1814" lon="0.94929">
        <ele>363</ele>
        <time>2022-08-01T09:08:26Z</time>
      </trkpt>
      <trkpt lat="43.18142" lon="0.94935">
        <ele>363</ele>
        <time>2022-08-01T09:08:29Z</time>
      </trkpt>
      <trkpt lat="43.18148" lon="0.94988">
        <ele>362</ele>
        <time>2022-08-01T09:09:00Z</time>
      </trkpt>
      <trkpt lat="43.18148" lon="0.94994">
        <ele>362</ele>
        <time>2022-08-01T09:09:04Z</time>
      </trkpt>
      <trkpt lat="43.18149" lon="0.94999">
        <ele>361</ele>
        <time>2022-08-01T09:09:07Z</time>
      </trkpt>
      <trkpt lat="43.18151" lon="0.95005">
        <ele>362</ele>
        <time>2022-08-01T09:09:11Z</time>
      </trkpt>
      <trkpt lat="43.18155" lon="0.95029">
        <ele>361</ele>
        <time>2022-08-01T09:09:27Z</time>
      </trkpt>
      <trkpt lat="43.18155" lon="0.95035">
        <ele>361</ele>
        <time>2022-08-01T09:09:31Z</time>
      </trkpt>
      <trkpt lat="43.1816" lon="0.95051">
        <ele>360</ele>
        <time>2022-08-01T09:09:42Z</time>
      </trkpt>
      <trkpt lat="43.1816" lon="0.95061">
        <ele>360</ele>
        <time>2022-08-01T09:09:49Z</time>
      </trkpt>
      <trkpt lat="43.18166" lon="0.9508">
        <ele>358</ele>
        <time>2022-08-01T09:10:03Z</time>
      </trkpt>
      <trkpt lat="43.18177" lon="0.95087">
        <ele>359</ele>
        <time>2022-08-01T09:10:14Z</time>
      </trkpt>
      <trkpt lat="43.18182" lon="0.95089">
        <ele>359</ele>
        <time>2022-08-01T09:10:18Z</time>
      </trkpt>
      <trkpt lat="43.18188" lon="0.9509">
        <ele>359</ele>
        <time>2022-08-01T09:10:24Z</time>
      </trkpt>
      <trkpt lat="43.18191" lon="0.95096">
        <ele>359</ele>
        <time>2022-08-01T09:10:29Z</time>
      </trkpt>
      <trkpt lat="43.18192" lon="0.95102">
        <ele>359</ele>
        <time>2022-08-01T09:10:32Z</time>
      </trkpt>
      <trkpt lat="43.18194" lon="0.9513">
        <ele>357</ele>
        <time>2022-08-01T09:10:49Z</time>
      </trkpt>
      <trkpt lat="43.18195" lon="0.95181">
        <ele>355</ele>
        <time>2022-08-01T09:11:21Z</time>
      </trkpt>
      <trkpt lat="43.18195" lon="0.9521">
        <ele>353</ele>
        <time>2022-08-01T09:11:39Z</time>
      </trkpt>
      <trkpt lat="43.18198" lon="0.95222">
        <ele>352</ele>
        <time>2022-08-01T09:11:48Z</time>
      </trkpt>
      <trkpt lat="43.182" lon="0.95259">
        <ele>349</ele>
        <time>2022-08-01T09:12:11Z</time>
      </trkpt>
      <trkpt lat="43.18203" lon="0.95263">
        <ele>349</ele>
        <time>2022-08-01T09:12:15Z</time>
      </trkpt>
      <trkpt lat="43.18212" lon="0.95311">
        <ele>347</ele>
        <time>2022-08-01T09:12:46Z</time>
      </trkpt>
      <trkpt lat="43.1822" lon="0.9536">
        <ele>344</ele>
        <time>2022-08-01T09:13:18Z</time>
      </trkpt>
      <trkpt lat="43.18223" lon="0.95367">
        <ele>344</ele>
        <time>2022-08-01T09:13:23Z</time>
      </trkpt>
      <trkpt lat="43.18225" lon="0.95379">
        <ele>342</ele>
        <time>2022-08-01T09:13:34Z</time>
      </trkpt>
      <trkpt lat="43.18232" lon="0.95394">
        <ele>341</ele>
        <time>2022-08-01T09:13:45Z</time>
      </trkpt>
      <trkpt lat="43.18242" lon="0.95412">
        <ele>339</ele>
        <time>2022-08-01T09:14:00Z</time>
      </trkpt>
      <trkpt lat="43.18258" lon="0.95447">
        <ele>337</ele>
        <time>2022-08-01T09:14:23Z</time>
      </trkpt>
      <trkpt lat="43.1826" lon="0.95456">
        <ele>337</ele>
        <time>2022-08-01T09:14:30Z</time>
      </trkpt>
      <trkpt lat="43.18258" lon="0.95493">
        <ele>337</ele>
        <time>2022-08-01T09:14:50Z</time>
      </trkpt>
      <trkpt lat="43.18254" lon="0.95514">
        <ele>337</ele>
        <time>2022-08-01T09:15:03Z</time>
      </trkpt>
      <trkpt lat="43.18253" lon="0.95551">
        <ele>336</ele>
        <time>2022-08-01T09:15:22Z</time>
      </trkpt>
      <trkpt lat="43.1825" lon="0.95566">
        <ele>336</ele>
        <time>2022-08-01T09:15:30Z</time>
      </trkpt>
      <trkpt lat="43.18246" lon="0.9561">
        <ele>335</ele>
        <time>2022-08-01T09:15:56Z</time>
      </trkpt>
      <trkpt lat="43.18247" lon="0.95617">
        <ele>335</ele>
        <time>2022-08-01T09:15:59Z</time>
      </trkpt>
      <trkpt lat="43.18243" lon="0.95642">
        <ele>334</ele>
        <time>2022-08-01T09:16:14Z</time>
      </trkpt>
      <trkpt lat="43.18236" lon="0.95646">
        <ele>335</ele>
        <time>2022-08-01T09:16:26Z</time>
      </trkpt>
      <trkpt lat="43.18232" lon="0.95664">
        <ele>334</ele>
        <time>2022-08-01T09:17:03Z</time>
      </trkpt>
      <trkpt lat="43.18235" lon="0.95673">
        <ele>334</ele>
        <time>2022-08-01T09:17:08Z</time>
      </trkpt>
      <trkpt lat="43.18241" lon="0.95683">
        <ele>333</ele>
        <time>2022-08-01T09:17:16Z</time>
      </trkpt>
      <trkpt lat="43.18248" lon="0.95727">
        <ele>333</ele>
        <time>2022-08-01T09:17:43Z</time>
      </trkpt>
      <trkpt lat="43.1825" lon="0.95742">
        <ele>332</ele>
        <time>2022-08-01T09:17:50Z</time>
      </trkpt>
      <trkpt lat="43.18246" lon="0.95768">
        <ele>331</ele>
        <time>2022-08-01T09:18:05Z</time>
      </trkpt>
      <trkpt lat="43.18244" lon="0.95775">
        <ele>331</ele>
        <time>2022-08-01T09:18:11Z</time>
      </trkpt>
      <trkpt lat="43.18243" lon="0.95787">
        <ele>330</ele>
        <time>2022-08-01T09:18:19Z</time>
      </trkpt>
      <trkpt lat="43.18244" lon="0.95793">
        <ele>330</ele>
        <time>2022-08-01T09:18:39Z</time>
      </trkpt>
      <trkpt lat="43.18246" lon="0.95804">
        <ele>330</ele>
        <time>2022-08-01T09:18:56Z</time>
      </trkpt>
      <trkpt lat="43.18253" lon="0.95833">
        <ele>329</ele>
        <time>2022-08-01T09:19:16Z</time>
      </trkpt>
      <trkpt lat="43.18253" lon="0.95842">
        <ele>328</ele>
        <time>2022-08-01T09:19:22Z</time>
      </trkpt>
      <trkpt lat="43.18256" lon="0.95862">
        <ele>327</ele>
        <time>2022-08-01T09:19:34Z</time>
      </trkpt>
      <trkpt lat="43.18259" lon="0.95867">
        <ele>327</ele>
        <time>2022-08-01T09:19:38Z</time>
      </trkpt>
      <trkpt lat="43.1826" lon="0.95875">
        <ele>327</ele>
        <time>2022-08-01T09:19:43Z</time>
      </trkpt>
      <trkpt lat="43.18262" lon="0.95883">
        <ele>326</ele>
        <time>2022-08-01T09:19:48Z</time>
      </trkpt>
      <trkpt lat="43.18266" lon="0.95891">
        <ele>326</ele>
        <time>2022-08-01T09:19:53Z</time>
      </trkpt>
      <trkpt lat="43.18271" lon="0.9592">
        <ele>324</ele>
        <time>2022-08-01T09:20:11Z</time>
      </trkpt>
      <trkpt lat="43.18274" lon="0.95926">
        <ele>324</ele>
        <time>2022-08-01T09:20:18Z</time>
      </trkpt>
      <trkpt lat="43.1828" lon="0.9592">
        <ele>324</ele>
        <time>2022-08-01T09:20:48Z</time>
      </trkpt>
      <trkpt lat="43.18292" lon="0.95907">
        <ele>325</ele>
        <time>2022-08-01T09:21:03Z</time>
      </trkpt>
      <trkpt lat="43.183" lon="0.95894">
        <ele>326</ele>
        <time>2022-08-01T09:21:16Z</time>
      </trkpt>
      <trkpt lat="43.18306" lon="0.95886">
        <ele>327</ele>
        <time>2022-08-01T09:21:27Z</time>
      </trkpt>
      <trkpt lat="43.18313" lon="0.95873">
        <ele>328</ele>
        <time>2022-08-01T09:21:40Z</time>
      </trkpt>
      <trkpt lat="43.18317" lon="0.95868">
        <ele>329</ele>
        <time>2022-08-01T09:21:45Z</time>
      </trkpt>
      <trkpt lat="43.1832" lon="0.95862">
        <ele>329</ele>
        <time>2022-08-01T09:21:53Z</time>
      </trkpt>
      <trkpt lat="43.18328" lon="0.9585">
        <ele>330</ele>
        <time>2022-08-01T09:22:05Z</time>
      </trkpt>
      <trkpt lat="43.18331" lon="0.95843">
        <ele>331</ele>
        <time>2022-08-01T09:22:13Z</time>
      </trkpt>
      <trkpt lat="43.18341" lon="0.95826">
        <ele>333</ele>
        <time>2022-08-01T09:22:31Z</time>
      </trkpt>
      <trkpt lat="43.18356" lon="0.95808">
        <ele>335</ele>
        <time>2022-08-01T09:22:55Z</time>
      </trkpt>
      <trkpt lat="43.18358" lon="0.95802">
        <ele>336</ele>
        <time>2022-08-01T09:23:01Z</time>
      </trkpt>
      <trkpt lat="43.18368" lon="0.9579">
        <ele>337</ele>
        <time>2022-08-01T09:23:16Z</time>
      </trkpt>
      <trkpt lat="43.18373" lon="0.95795">
        <ele>339</ele>
        <time>2022-08-01T09:23:31Z</time>
      </trkpt>
      <trkpt lat="43.18377" lon="0.95789">
        <ele>338</ele>
        <time>2022-08-01T09:23:55Z</time>
      </trkpt>
      <trkpt lat="43.18384" lon="0.9577">
        <ele>339</ele>
        <time>2022-08-01T09:24:16Z</time>
      </trkpt>
      <trkpt lat="43.18392" lon="0.95761">
        <ele>339</ele>
        <time>2022-08-01T09:24:26Z</time>
      </trkpt>
      <trkpt lat="43.18394" lon="0.95755">
        <ele>340</ele>
        <time>2022-08-01T09:24:31Z</time>
      </trkpt>
      <trkpt lat="43.184" lon="0.95749">
        <ele>340</ele>
        <time>2022-08-01T09:24:38Z</time>
      </trkpt>
      <trkpt lat="43.18403" lon="0.95741">
        <ele>340</ele>
        <time>2022-08-01T09:24:42Z</time>
      </trkpt>
      <trkpt lat="43.18417" lon="0.95725">
        <ele>341</ele>
        <time>2022-08-01T09:24:58Z</time>
      </trkpt>
      <trkpt lat="43.18419" lon="0.95719">
        <ele>341</ele>
        <time>2022-08-01T09:25:03Z</time>
      </trkpt>
      <trkpt lat="43.18435" lon="0.95704">
        <ele>341</ele>
        <time>2022-08-01T09:25:18Z</time>
      </trkpt>
      <trkpt lat="43.18442" lon="0.95692">
        <ele>341</ele>
        <time>2022-08-01T09:25:27Z</time>
      </trkpt>
      <trkpt lat="43.18473" lon="0.95659">
        <ele>340</ele>
        <time>2022-08-01T09:26:00Z</time>
      </trkpt>
      <trkpt lat="43.18478" lon="0.95654">
        <ele>340</ele>
        <time>2022-08-01T09:26:05Z</time>
      </trkpt>
      <trkpt lat="43.18485" lon="0.95651">
        <ele>340</ele>
        <time>2022-08-01T09:26:27Z</time>
      </trkpt>
      <trkpt lat="43.18498" lon="0.95631">
        <ele>339</ele>
        <time>2022-08-01T09:26:47Z</time>
      </trkpt>
      <trkpt lat="43.18504" lon="0.95625">
        <ele>338</ele>
        <time>2022-08-01T09:26:53Z</time>
      </trkpt>
      <trkpt lat="43.18507" lon="0.95619">
        <ele>338</ele>
        <time>2022-08-01T09:26:58Z</time>
      </trkpt>
      <trkpt lat="43.18516" lon="0.95607">
        <ele>337</ele>
        <time>2022-08-01T09:27:08Z</time>
      </trkpt>
      <trkpt lat="43.18522" lon="0.95595">
        <ele>337</ele>
        <time>2022-08-01T09:27:16Z</time>
      </trkpt>
      <trkpt lat="43.18529" lon="0.95577">
        <ele>337</ele>
        <time>2022-08-01T09:27:31Z</time>
      </trkpt>
      <trkpt lat="43.18538" lon="0.95558">
        <ele>337</ele>
        <time>2022-08-01T09:27:45Z</time>
      </trkpt>
      <trkpt lat="43.18544" lon="0.95542">
        <ele>337</ele>
        <time>2022-08-01T09:27:54Z</time>
      </trkpt>
      <trkpt lat="43.18551" lon="0.95531">
        <ele>337</ele>
        <time>2022-08-01T09:28:03Z</time>
      </trkpt>
      <trkpt lat="43.18574" lon="0.95488">
        <ele>337</ele>
        <time>2022-08-01T09:28:35Z</time>
      </trkpt>
      <trkpt lat="43.18576" lon="0.95482">
        <ele>337</ele>
        <time>2022-08-01T09:28:40Z</time>
      </trkpt>
      <trkpt lat="43.1858" lon="0.95479">
        <ele>337</ele>
        <time>2022-08-01T09:28:45Z</time>
      </trkpt>
      <trkpt lat="43.18584" lon="0.95483">
        <ele>337</ele>
        <time>2022-08-01T09:28:50Z</time>
      </trkpt>
      <trkpt lat="43.18593" lon="0.95499">
        <ele>335</ele>
        <time>2022-08-01T09:29:06Z</time>
      </trkpt>
      <trkpt lat="43.18595" lon="0.9551">
        <ele>334</ele>
        <time>2022-08-01T09:29:18Z</time>
      </trkpt>
      <trkpt lat="43.18598" lon="0.95532">
        <ele>331</ele>
        <time>2022-08-01T09:29:42Z</time>
      </trkpt>
      <trkpt lat="43.186" lon="0.95542">
        <ele>330</ele>
        <time>2022-08-01T09:29:54Z</time>
      </trkpt>
      <trkpt lat="43.18602" lon="0.9555">
        <ele>329</ele>
        <time>2022-08-01T09:30:06Z</time>
      </trkpt>
      <trkpt lat="43.18604" lon="0.9556">
        <ele>327</ele>
        <time>2022-08-01T09:30:24Z</time>
      </trkpt>
      <trkpt lat="43.18609" lon="0.95565">
        <ele>326</ele>
        <time>2022-08-01T09:30:36Z</time>
      </trkpt>
      <trkpt lat="43.18612" lon="0.95573">
        <ele>324</ele>
        <time>2022-08-01T09:31:00Z</time>
      </trkpt>
      <trkpt lat="43.18623" lon="0.95582">
        <ele>322</ele>
        <time>2022-08-01T09:31:23Z</time>
      </trkpt>
      <trkpt lat="43.18626" lon="0.9559">
        <ele>321</ele>
        <time>2022-08-01T09:31:31Z</time>
      </trkpt>
      <trkpt lat="43.18629" lon="0.956">
        <ele>321</ele>
        <time>2022-08-01T09:31:39Z</time>
      </trkpt>
      <trkpt lat="43.18633" lon="0.95608">
        <ele>320</ele>
        <time>2022-08-01T09:31:47Z</time>
      </trkpt>
      <trkpt lat="43.18634" lon="0.95616">
        <ele>320</ele>
        <time>2022-08-01T09:31:52Z</time>
      </trkpt>
      <trkpt lat="43.18633" lon="0.95635">
        <ele>320</ele>
        <time>2022-08-01T09:32:08Z</time>
      </trkpt>
      <trkpt lat="43.1863" lon="0.95645">
        <ele>319</ele>
        <time>2022-08-01T09:32:15Z</time>
      </trkpt>
      <trkpt lat="43.18625" lon="0.95654">
        <ele>320</ele>
        <time>2022-08-01T09:32:48Z</time>
      </trkpt>
      <trkpt lat="43.18616" lon="0.95699">
        <ele>318</ele>
        <time>2022-08-01T09:33:26Z</time>
      </trkpt>
      <trkpt lat="43.18611" lon="0.95726">
        <ele>318</ele>
        <time>2022-08-01T09:33:49Z</time>
      </trkpt>
      <trkpt lat="43.18604" lon="0.95743">
        <ele>317</ele>
        <time>2022-08-01T09:34:02Z</time>
      </trkpt>
      <trkpt lat="43.18604" lon="0.95753">
        <ele>317</ele>
        <time>2022-08-01T09:34:08Z</time>
      </trkpt>
      <trkpt lat="43.18603" lon="0.95763">
        <ele>317</ele>
        <time>2022-08-01T09:34:15Z</time>
      </trkpt>
      <trkpt lat="43.18603" lon="0.95773">
        <ele>316</ele>
        <time>2022-08-01T09:34:25Z</time>
      </trkpt>
      <trkpt lat="43.186" lon="0.95792">
        <ele>316</ele>
        <time>2022-08-01T09:34:37Z</time>
      </trkpt>
      <trkpt lat="43.18591" lon="0.95829">
        <ele>315</ele>
        <time>2022-08-01T09:35:06Z</time>
      </trkpt>
      <trkpt lat="43.18591" lon="0.95848">
        <ele>315</ele>
        <time>2022-08-01T09:35:20Z</time>
      </trkpt>
      <trkpt lat="43.18587" lon="0.95864">
        <ele>315</ele>
        <time>2022-08-01T09:35:30Z</time>
      </trkpt>
      <trkpt lat="43.18584" lon="0.95911">
        <ele>313</ele>
        <time>2022-08-01T09:36:04Z</time>
      </trkpt>
      <trkpt lat="43.18582" lon="0.95921">
        <ele>313</ele>
        <time>2022-08-01T09:36:10Z</time>
      </trkpt>
      <trkpt lat="43.18583" lon="0.95929">
        <ele>313</ele>
        <time>2022-08-01T09:36:14Z</time>
      </trkpt>
      <trkpt lat="43.18582" lon="0.95938">
        <ele>313</ele>
        <time>2022-08-01T09:36:19Z</time>
      </trkpt>
      <trkpt lat="43.18585" lon="0.95992">
        <ele>312</ele>
        <time>2022-08-01T09:36:54Z</time>
      </trkpt>
      <trkpt lat="43.18585" lon="0.96002">
        <ele>312</ele>
        <time>2022-08-01T09:36:59Z</time>
      </trkpt>
      <trkpt lat="43.18587" lon="0.96019">
        <ele>312</ele>
        <time>2022-08-01T09:37:09Z</time>
      </trkpt>
      <trkpt lat="43.18586" lon="0.96027">
        <ele>312</ele>
        <time>2022-08-01T09:37:14Z</time>
      </trkpt>
      <trkpt lat="43.18588" lon="0.96034">
        <ele>311</ele>
        <time>2022-08-01T09:37:18Z</time>
      </trkpt>
      <trkpt lat="43.18588" lon="0.96041">
        <ele>311</ele>
        <time>2022-08-01T09:37:22Z</time>
      </trkpt>
      <trkpt lat="43.1859" lon="0.96063">
        <ele>310</ele>
        <time>2022-08-01T09:37:35Z</time>
      </trkpt>
      <trkpt lat="43.18586" lon="0.96088">
        <ele>309</ele>
        <time>2022-08-01T09:37:52Z</time>
      </trkpt>
      <trkpt lat="43.18581" lon="0.96093">
        <ele>309</ele>
        <time>2022-08-01T09:38:27Z</time>
      </trkpt>
      <trkpt lat="43.1858" lon="0.96102">
        <ele>309</ele>
        <time>2022-08-01T09:38:33Z</time>
      </trkpt>
      <trkpt lat="43.18582" lon="0.9611">
        <ele>308</ele>
        <time>2022-08-01T09:38:41Z</time>
      </trkpt>
      <trkpt lat="43.18581" lon="0.96127">
        <ele>308</ele>
        <time>2022-08-01T09:38:53Z</time>
      </trkpt>
      <trkpt lat="43.18577" lon="0.96158">
        <ele>307</ele>
        <time>2022-08-01T09:39:23Z</time>
      </trkpt>
      <trkpt lat="43.1856" lon="0.96208">
        <ele>305</ele>
        <time>2022-08-01T09:39:55Z</time>
      </trkpt>
      <trkpt lat="43.1855" lon="0.96233">
        <ele>305</ele>
        <time>2022-08-01T09:40:12Z</time>
      </trkpt>
      <trkpt lat="43.1855" lon="0.96242">
        <ele>305</ele>
        <time>2022-08-01T09:40:16Z</time>
      </trkpt>
      <trkpt lat="43.18546" lon="0.96251">
        <ele>305</ele>
        <time>2022-08-01T09:40:21Z</time>
      </trkpt>
      <trkpt lat="43.18545" lon="0.96258">
        <ele>305</ele>
        <time>2022-08-01T09:40:26Z</time>
      </trkpt>
      <trkpt lat="43.18547" lon="0.96277">
        <ele>305</ele>
        <time>2022-08-01T09:40:41Z</time>
      </trkpt>
      <trkpt lat="43.18558" lon="0.96296">
        <ele>305</ele>
        <time>2022-08-01T09:41:07Z</time>
      </trkpt>
      <trkpt lat="43.18552" lon="0.96304">
        <ele>306</ele>
        <time>2022-08-01T09:41:26Z</time>
      </trkpt>
      <trkpt lat="43.18555" lon="0.96317">
        <ele>305</ele>
        <time>2022-08-01T09:41:39Z</time>
      </trkpt>
      <trkpt lat="43.18556" lon="0.96328">
        <ele>304</ele>
        <time>2022-08-01T09:41:46Z</time>
      </trkpt>
      <trkpt lat="43.18551" lon="0.96354">
        <ele>303</ele>
        <time>2022-08-01T09:42:03Z</time>
      </trkpt>
      <trkpt lat="43.1855" lon="0.96374">
        <ele>303</ele>
        <time>2022-08-01T09:42:16Z</time>
      </trkpt>
      <trkpt lat="43.18543" lon="0.96381">
        <ele>303</ele>
        <time>2022-08-01T09:42:25Z</time>
      </trkpt>
      <trkpt lat="43.18536" lon="0.96383">
        <ele>303</ele>
        <time>2022-08-01T09:42:29Z</time>
      </trkpt>
      <trkpt lat="43.18526" lon="0.96392">
        <ele>303</ele>
        <time>2022-08-01T09:42:54Z</time>
      </trkpt>
      <trkpt lat="43.18519" lon="0.96399">
        <ele>302</ele>
        <time>2022-08-01T09:43:01Z</time>
      </trkpt>
      <trkpt lat="43.18486" lon="0.96425">
        <ele>301</ele>
        <time>2022-08-01T09:43:33Z</time>
      </trkpt>
      <trkpt lat="43.18469" lon="0.96449">
        <ele>301</ele>
        <time>2022-08-01T09:43:54Z</time>
      </trkpt>
      <trkpt lat="43.18464" lon="0.96467">
        <ele>300</ele>
        <time>2022-08-01T09:44:06Z</time>
      </trkpt>
      <trkpt lat="43.18462" lon="0.96488">
        <ele>299</ele>
        <time>2022-08-01T09:44:19Z</time>
      </trkpt>
      <trkpt lat="43.18459" lon="0.96497">
        <ele>299</ele>
        <time>2022-08-01T09:44:25Z</time>
      </trkpt>
      <trkpt lat="43.18449" lon="0.96523">
        <ele>299</ele>
        <time>2022-08-01T09:44:42Z</time>
      </trkpt>
      <trkpt lat="43.18439" lon="0.96555">
        <ele>299</ele>
        <time>2022-08-01T09:45:00Z</time>
      </trkpt>
      <trkpt lat="43.18424" lon="0.96588">
        <ele>298</ele>
        <time>2022-08-01T09:45:24Z</time>
      </trkpt>
      <trkpt lat="43.18423" lon="0.96599">
        <ele>298</ele>
        <time>2022-08-01T09:45:31Z</time>
      </trkpt>
      <trkpt lat="43.18423" lon="0.96617">
        <ele>298</ele>
        <time>2022-08-01T09:45:41Z</time>
      </trkpt>
      <trkpt lat="43.1842" lon="0.96624">
        <ele>298</ele>
        <time>2022-08-01T09:45:45Z</time>
      </trkpt>
      <trkpt lat="43.18418" lon="0.96632">
        <ele>298</ele>
        <time>2022-08-01T09:45:50Z</time>
      </trkpt>
      <trkpt lat="43.18412" lon="0.96635">
        <ele>298</ele>
        <time>2022-08-01T09:45:56Z</time>
      </trkpt>
      <trkpt lat="43.18407" lon="0.9665">
        <ele>298</ele>
        <time>2022-08-01T09:46:28Z</time>
      </trkpt>
      <trkpt lat="43.18394" lon="0.96669">
        <ele>296</ele>
        <time>2022-08-01T09:46:43Z</time>
      </trkpt>
      <trkpt lat="43.18388" lon="0.96688">
        <ele>295</ele>
        <time>2022-08-01T09:46:57Z</time>
      </trkpt>
      <trkpt lat="43.18384" lon="0.96694">
        <ele>294</ele>
        <time>2022-08-01T09:47:01Z</time>
      </trkpt>
      <trkpt lat="43.18381" lon="0.96701">
        <ele>293</ele>
        <time>2022-08-01T09:47:06Z</time>
      </trkpt>
      <trkpt lat="43.18374" lon="0.96712">
        <ele>293</ele>
        <time>2022-08-01T09:47:14Z</time>
      </trkpt>
      <trkpt lat="43.18359" lon="0.96751">
        <ele>291</ele>
        <time>2022-08-01T09:47:40Z</time>
      </trkpt>
      <trkpt lat="43.18344" lon="0.96779">
        <ele>291</ele>
        <time>2022-08-01T09:47:58Z</time>
      </trkpt>
      <trkpt lat="43.18337" lon="0.968">
        <ele>291</ele>
        <time>2022-08-01T09:48:29Z</time>
      </trkpt>
      <trkpt lat="43.18331" lon="0.96825">
        <ele>291</ele>
        <time>2022-08-01T09:49:01Z</time>
      </trkpt>
      <trkpt lat="43.1832" lon="0.96874">
        <ele>289</ele>
        <time>2022-08-01T09:49:32Z</time>
      </trkpt>
      <trkpt lat="43.18317" lon="0.96888">
        <ele>289</ele>
        <time>2022-08-01T09:49:40Z</time>
      </trkpt>
      <trkpt lat="43.1832" lon="0.96932">
        <ele>287</ele>
        <time>2022-08-01T09:50:02Z</time>
      </trkpt>
      <trkpt lat="43.18321" lon="0.9694">
        <ele>286</ele>
        <time>2022-08-01T09:50:07Z</time>
      </trkpt>
      <trkpt lat="43.18321" lon="0.96955">
        <ele>286</ele>
        <time>2022-08-01T09:50:16Z</time>
      </trkpt>
      <trkpt lat="43.18322" lon="0.96962">
        <ele>286</ele>
        <time>2022-08-01T09:50:21Z</time>
      </trkpt>
      <trkpt lat="43.1833" lon="0.96982">
        <ele>285</ele>
        <time>2022-08-01T09:50:34Z</time>
      </trkpt>
      <trkpt lat="43.18336" lon="0.96992">
        <ele>285</ele>
        <time>2022-08-01T09:50:41Z</time>
      </trkpt>
      <trkpt lat="43.18348" lon="0.97026">
        <ele>284</ele>
        <time>2022-08-01T09:51:01Z</time>
      </trkpt>
      <trkpt lat="43.1835" lon="0.9704">
        <ele>284</ele>
        <time>2022-08-01T09:51:08Z</time>
      </trkpt>
      <trkpt lat="43.18349" lon="0.97046">
        <ele>284</ele>
        <time>2022-08-01T09:51:12Z</time>
      </trkpt>
      <trkpt lat="43.18324" lon="0.97083">
        <ele>282</ele>
        <time>2022-08-01T09:51:41Z</time>
      </trkpt>
      <trkpt lat="43.18308" lon="0.97102">
        <ele>282</ele>
        <time>2022-08-01T09:51:57Z</time>
      </trkpt>
      <trkpt lat="43.18305" lon="0.97107">
        <ele>281</ele>
        <time>2022-08-01T09:52:01Z</time>
      </trkpt>
      <trkpt lat="43.18301" lon="0.97111">
        <ele>281</ele>
        <time>2022-08-01T09:52:05Z</time>
      </trkpt>
      <trkpt lat="43.18297" lon="0.97117">
        <ele>281</ele>
        <time>2022-08-01T09:52:09Z</time>
      </trkpt>
      <trkpt lat="43.18272" lon="0.9715">
        <ele>280</ele>
        <time>2022-08-01T09:52:37Z</time>
      </trkpt>
      <trkpt lat="43.1826" lon="0.97171">
        <ele>279</ele>
        <time>2022-08-01T09:52:53Z</time>
      </trkpt>
      <trkpt lat="43.18255" lon="0.97176">
        <ele>279</ele>
        <time>2022-08-01T09:52:58Z</time>
      </trkpt>
      <trkpt lat="43.18227" lon="0.97214">
        <ele>278</ele>
        <time>2022-08-01T09:53:48Z</time>
      </trkpt>
      <trkpt lat="43.18227" lon="0.97221">
        <ele>278</ele>
        <time>2022-08-01T09:53:53Z</time>
      </trkpt>
      <trkpt lat="43.18227" lon="0.97227">
        <ele>278</ele>
        <time>2022-08-01T09:53:57Z</time>
      </trkpt>
      <trkpt lat="43.18232" lon="0.97233">
        <ele>278</ele>
        <time>2022-08-01T09:54:03Z</time>
      </trkpt>
      <trkpt lat="43.18233" lon="0.9724">
        <ele>278</ele>
        <time>2022-08-01T09:54:07Z</time>
      </trkpt>
      <trkpt lat="43.18236" lon="0.97245">
        <ele>278</ele>
        <time>2022-08-01T09:54:11Z</time>
      </trkpt>
      <trkpt lat="43.18241" lon="0.97256">
        <ele>277</ele>
        <time>2022-08-01T09:54:20Z</time>
      </trkpt>
      <trkpt lat="43.18243" lon="0.97261">
        <ele>277</ele>
        <time>2022-08-01T09:54:24Z</time>
      </trkpt>
      <trkpt lat="43.18242" lon="0.97275">
        <ele>277</ele>
        <time>2022-08-01T09:54:31Z</time>
      </trkpt>
      <trkpt lat="43.1824" lon="0.9728">
        <ele>277</ele>
        <time>2022-08-01T09:54:35Z</time>
      </trkpt>
      <trkpt lat="43.18229" lon="0.9728">
        <ele>276</ele>
        <time>2022-08-01T09:54:44Z</time>
      </trkpt>
      <trkpt lat="43.18219" lon="0.97278">
        <ele>276</ele>
        <time>2022-08-01T09:54:53Z</time>
      </trkpt>
      <trkpt lat="43.18206" lon="0.97275">
        <ele>275</ele>
        <time>2022-08-01T09:55:03Z</time>
      </trkpt>
      <trkpt lat="43.18197" lon="0.9727">
        <ele>275</ele>
        <time>2022-08-01T09:55:10Z</time>
      </trkpt>
      <trkpt lat="43.18164" lon="0.97262">
        <ele>274</ele>
        <time>2022-08-01T09:55:34Z</time>
      </trkpt>
      <trkpt lat="43.1816" lon="0.97259">
        <ele>274</ele>
        <time>2022-08-01T09:55:38Z</time>
      </trkpt>
      <trkpt lat="43.18135" lon="0.97254">
        <ele>274</ele>
        <time>2022-08-01T09:55:59Z</time>
      </trkpt>
      <trkpt lat="43.18125" lon="0.97256">
        <ele>274</ele>
        <time>2022-08-01T09:56:06Z</time>
      </trkpt>
      <trkpt lat="43.18092" lon="0.97275">
        <ele>271</ele>
        <time>2022-08-01T09:56:39Z</time>
      </trkpt>
      <trkpt lat="43.1809" lon="0.97281">
        <ele>270</ele>
        <time>2022-08-01T09:56:43Z</time>
      </trkpt>
      <trkpt lat="43.18083" lon="0.97286">
        <ele>270</ele>
        <time>2022-08-01T09:57:34Z</time>
      </trkpt>
      <trkpt lat="43.18054" lon="0.97304">
        <ele>270</ele>
        <time>2022-08-01T09:57:59Z</time>
      </trkpt>
      <trkpt lat="43.18046" lon="0.97311">
        <ele>270</ele>
        <time>2022-08-01T09:58:04Z</time>
      </trkpt>
      <trkpt lat="43.18041" lon="0.97314">
        <ele>271</ele>
        <time>2022-08-01T09:58:11Z</time>
      </trkpt>
      <trkpt lat="43.18036" lon="0.97322">
        <ele>271</ele>
        <time>2022-08-01T09:58:19Z</time>
      </trkpt>
      <trkpt lat="43.1802" lon="0.97331">
        <ele>273</ele>
        <time>2022-08-01T09:58:38Z</time>
      </trkpt>
      <trkpt lat="43.18015" lon="0.97332">
        <ele>273</ele>
        <time>2022-08-01T09:58:42Z</time>
      </trkpt>
      <trkpt lat="43.17998" lon="0.97324">
        <ele>273</ele>
        <time>2022-08-01T09:58:57Z</time>
      </trkpt>
      <trkpt lat="43.1796" lon="0.97298">
        <ele>272</ele>
        <time>2022-08-01T09:59:30Z</time>
      </trkpt>
      <trkpt lat="43.17957" lon="0.97295">
        <ele>272</ele>
        <time>2022-08-01T09:59:33Z</time>
      </trkpt>
      <trkpt lat="43.17955" lon="0.9729">
        <ele>272</ele>
        <time>2022-08-01T09:59:36Z</time>
      </trkpt>
      <trkpt lat="43.17951" lon="0.97286">
        <ele>272</ele>
        <time>2022-08-01T09:59:40Z</time>
      </trkpt>
    </trkseg>
  </trk>
</gpx>